<?xml version='1.0' encoding='UTF-8'?>
<gpx version="1.1" creator="https://www.komoot.de" xmlns="http://www.topografix.com/GPX/1/1" xmlns:xsi="http://www.w3.org/2001/XMLSchema-instance" xsi:schemaLocation="http://www.topografix.com/GPX/1/1 http://www.topografix.com/GPX/1/1/gpx.xsd">
  <metadata>
    <name>Ensheimer Brunnenweg 👌🙂</name>
    <author>
      <link href="https://www.komoot.de">
        <text>komoot</text>
        <type>text/html</type>
      </link>
    </author>
  </metadata>
  <trk>
    <name>Ensheimer Brunnenweg 👌🙂</name>
    <trkseg>
      <trkpt lat="49.228220" lon="7.110935">
        <ele>245.835176</ele>
        <time>2024-03-03T09:31:54.000Z</time>
      </trkpt>
      <trkpt lat="49.228327" lon="7.110948">
        <ele>245.835176</ele>
        <time>2024-03-03T09:32:07.999Z</time>
      </trkpt>
      <trkpt lat="49.228409" lon="7.111021">
        <ele>245.835176</ele>
        <time>2024-03-03T09:32:15.999Z</time>
      </trkpt>
      <trkpt lat="49.228513" lon="7.111062">
        <ele>245.835176</ele>
        <time>2024-03-03T09:32:27.999Z</time>
      </trkpt>
      <trkpt lat="49.228600" lon="7.111123">
        <ele>245.835176</ele>
        <time>2024-03-03T09:32:39.999Z</time>
      </trkpt>
      <trkpt lat="49.228699" lon="7.111122">
        <ele>245.835176</ele>
        <time>2024-03-03T09:32:49.999Z</time>
      </trkpt>
      <trkpt lat="49.228804" lon="7.111135">
        <ele>245.835176</ele>
        <time>2024-03-03T09:33:01.999Z</time>
      </trkpt>
      <trkpt lat="49.228907" lon="7.111199">
        <ele>245.835176</ele>
        <time>2024-03-03T09:33:11.000Z</time>
      </trkpt>
      <trkpt lat="49.228991" lon="7.111286">
        <ele>245.835176</ele>
        <time>2024-03-03T09:33:23.000Z</time>
      </trkpt>
      <trkpt lat="49.229090" lon="7.111302">
        <ele>245.967388</ele>
        <time>2024-03-03T09:33:37.000Z</time>
      </trkpt>
      <trkpt lat="49.229176" lon="7.111345">
        <ele>246.501275</ele>
        <time>2024-03-03T09:34:05.000Z</time>
      </trkpt>
      <trkpt lat="49.229265" lon="7.111394">
        <ele>247.059411</ele>
        <time>2024-03-03T09:34:57.999Z</time>
      </trkpt>
      <trkpt lat="49.229362" lon="7.111368">
        <ele>247.640547</ele>
        <time>2024-03-03T09:35:09.999Z</time>
      </trkpt>
      <trkpt lat="49.229454" lon="7.111395">
        <ele>248.193353</ele>
        <time>2024-03-03T09:35:20.000Z</time>
      </trkpt>
      <trkpt lat="49.229548" lon="7.111381">
        <ele>248.750699</ele>
        <time>2024-03-03T09:35:31.999Z</time>
      </trkpt>
      <trkpt lat="49.229666" lon="7.111402">
        <ele>249.451747</ele>
        <time>2024-03-03T09:35:39.999Z</time>
      </trkpt>
      <trkpt lat="49.229756" lon="7.111428">
        <ele>249.992238</ele>
        <time>2024-03-03T09:35:49.999Z</time>
      </trkpt>
      <trkpt lat="49.229715" lon="7.111559">
        <ele>250.552067</ele>
        <time>2024-03-03T09:36:03.999Z</time>
      </trkpt>
      <trkpt lat="49.229666" lon="7.111740">
        <ele>251.307160</ele>
        <time>2024-03-03T09:36:16.999Z</time>
      </trkpt>
      <trkpt lat="49.229660" lon="7.111896">
        <ele>251.909388</ele>
        <time>2024-03-03T09:36:27.999Z</time>
      </trkpt>
      <trkpt lat="49.229654" lon="7.112035">
        <ele>252.446230</ele>
        <time>2024-03-03T09:36:37.999Z</time>
      </trkpt>
      <trkpt lat="49.229618" lon="7.112173">
        <ele>253.018913</ele>
        <time>2024-03-03T09:36:46.999Z</time>
      </trkpt>
      <trkpt lat="49.229660" lon="7.112310">
        <ele>253.602164</ele>
        <time>2024-03-03T09:36:57.998Z</time>
      </trkpt>
      <trkpt lat="49.229694" lon="7.112445">
        <ele>254.159772</ele>
        <time>2024-03-03T09:37:04.998Z</time>
      </trkpt>
      <trkpt lat="49.229759" lon="7.112553">
        <ele>254.725782</ele>
        <time>2024-03-03T09:37:16.998Z</time>
      </trkpt>
      <trkpt lat="49.229852" lon="7.112611">
        <ele>255.318378</ele>
        <time>2024-03-03T09:37:24.999Z</time>
      </trkpt>
      <trkpt lat="49.229937" lon="7.112705">
        <ele>255.937123</ele>
        <time>2024-03-03T09:37:36.999Z</time>
      </trkpt>
      <trkpt lat="49.230024" lon="7.112754">
        <ele>256.580344</ele>
        <time>2024-03-03T09:37:52.999Z</time>
      </trkpt>
      <trkpt lat="49.230098" lon="7.112838">
        <ele>258.637551</ele>
        <time>2024-03-03T09:38:07.999Z</time>
      </trkpt>
      <trkpt lat="49.230187" lon="7.112877">
        <ele>260.704996</ele>
        <time>2024-03-03T09:38:18.999Z</time>
      </trkpt>
      <trkpt lat="49.230266" lon="7.112961">
        <ele>262.852938</ele>
        <time>2024-03-03T09:38:29.999Z</time>
      </trkpt>
      <trkpt lat="49.230341" lon="7.113062">
        <ele>265.083483</ele>
        <time>2024-03-03T09:38:40.999Z</time>
      </trkpt>
      <trkpt lat="49.230404" lon="7.113173">
        <ele>267.228306</ele>
        <time>2024-03-03T09:38:55.998Z</time>
      </trkpt>
      <trkpt lat="49.230497" lon="7.113173">
        <ele>269.305305</ele>
        <time>2024-03-03T09:39:05.998Z</time>
      </trkpt>
      <trkpt lat="49.230469" lon="7.113311">
        <ele>271.412814</ele>
        <time>2024-03-03T09:39:38.999Z</time>
      </trkpt>
      <trkpt lat="49.230417" lon="7.113429">
        <ele>273.488930</ele>
        <time>2024-03-03T09:39:58.999Z</time>
      </trkpt>
      <trkpt lat="49.230311" lon="7.113396">
        <ele>275.904687</ele>
        <time>2024-03-03T09:41:02.999Z</time>
      </trkpt>
      <trkpt lat="49.230220" lon="7.113410">
        <ele>277.947249</ele>
        <time>2024-03-03T09:41:09.999Z</time>
      </trkpt>
      <trkpt lat="49.230116" lon="7.113431">
        <ele>280.290019</ele>
        <time>2024-03-03T09:41:22.998Z</time>
      </trkpt>
      <trkpt lat="49.230010" lon="7.113414">
        <ele>282.670298</ele>
        <time>2024-03-03T09:41:31.998Z</time>
      </trkpt>
      <trkpt lat="49.229922" lon="7.113467">
        <ele>284.782170</ele>
        <time>2024-03-03T09:41:54.999Z</time>
      </trkpt>
      <trkpt lat="49.230000" lon="7.113541">
        <ele>286.831389</ele>
        <time>2024-03-03T09:42:03.999Z</time>
      </trkpt>
      <trkpt lat="49.230072" lon="7.113628">
        <ele>288.879699</ele>
        <time>2024-03-03T09:42:22.999Z</time>
      </trkpt>
      <trkpt lat="49.230146" lon="7.113726">
        <ele>291.064659</ele>
        <time>2024-03-03T09:42:35.999Z</time>
      </trkpt>
      <trkpt lat="49.230218" lon="7.113809">
        <ele>293.077351</ele>
        <time>2024-03-03T09:42:58.999Z</time>
      </trkpt>
      <trkpt lat="49.230300" lon="7.113878">
        <ele>295.166950</ele>
        <time>2024-03-03T09:43:42.000Z</time>
      </trkpt>
      <trkpt lat="49.230371" lon="7.113985">
        <ele>297.107696</ele>
        <time>2024-03-03T09:43:54.000Z</time>
      </trkpt>
      <trkpt lat="49.230414" lon="7.114119">
        <ele>298.484554</ele>
        <time>2024-03-03T09:44:28.999Z</time>
      </trkpt>
      <trkpt lat="49.230320" lon="7.114101">
        <ele>299.822338</ele>
        <time>2024-03-03T09:45:48.000Z</time>
      </trkpt>
      <trkpt lat="49.230416" lon="7.114128">
        <ele>301.200703</ele>
        <time>2024-03-03T09:46:22.999Z</time>
      </trkpt>
      <trkpt lat="49.230471" lon="7.114240">
        <ele>302.492993</ele>
        <time>2024-03-03T09:46:40.999Z</time>
      </trkpt>
      <trkpt lat="49.230564" lon="7.114288">
        <ele>303.878906</ele>
        <time>2024-03-03T09:46:54.999Z</time>
      </trkpt>
      <trkpt lat="49.230490" lon="7.114389">
        <ele>305.278745</ele>
        <time>2024-03-03T09:48:03.000Z</time>
      </trkpt>
      <trkpt lat="49.230402" lon="7.114437">
        <ele>306.597940</ele>
        <time>2024-03-03T09:48:17.000Z</time>
      </trkpt>
      <trkpt lat="49.230436" lon="7.114579">
        <ele>307.992682</ele>
        <time>2024-03-03T09:48:39.999Z</time>
      </trkpt>
      <trkpt lat="49.230504" lon="7.114682">
        <ele>309.343363</ele>
        <time>2024-03-03T09:48:56.999Z</time>
      </trkpt>
      <trkpt lat="49.230581" lon="7.114779">
        <ele>310.751388</ele>
        <time>2024-03-03T09:52:13.000Z</time>
      </trkpt>
      <trkpt lat="49.230653" lon="7.114866">
        <ele>312.046566</ele>
        <time>2024-03-03T09:52:26.000Z</time>
      </trkpt>
      <trkpt lat="49.230753" lon="7.114915">
        <ele>313.529275</ele>
        <time>2024-03-03T09:52:36.000Z</time>
      </trkpt>
      <trkpt lat="49.230845" lon="7.114937">
        <ele>314.844222</ele>
        <time>2024-03-03T09:52:48.000Z</time>
      </trkpt>
      <trkpt lat="49.230944" lon="7.115006">
        <ele>316.380266</ele>
        <time>2024-03-03T09:53:07.000Z</time>
      </trkpt>
      <trkpt lat="49.231035" lon="7.115033">
        <ele>317.689246</ele>
        <time>2024-03-03T09:53:14.000Z</time>
      </trkpt>
      <trkpt lat="49.231121" lon="7.115081">
        <ele>318.981868</ele>
        <time>2024-03-03T09:53:21.999Z</time>
      </trkpt>
      <trkpt lat="49.231215" lon="7.115136">
        <ele>320.402908</ele>
        <time>2024-03-03T09:53:34.999Z</time>
      </trkpt>
      <trkpt lat="49.231314" lon="7.115164">
        <ele>321.824607</ele>
        <time>2024-03-03T09:53:45.999Z</time>
      </trkpt>
      <trkpt lat="49.231410" lon="7.115189">
        <ele>321.797956</ele>
        <time>2024-03-03T09:53:54.999Z</time>
      </trkpt>
      <trkpt lat="49.231529" lon="7.115219">
        <ele>321.478590</ele>
        <time>2024-03-03T09:54:28.999Z</time>
      </trkpt>
      <trkpt lat="49.231603" lon="7.115298">
        <ele>321.239714</ele>
        <time>2024-03-03T09:54:37.999Z</time>
      </trkpt>
      <trkpt lat="49.231694" lon="7.115313">
        <ele>320.997344</ele>
        <time>2024-03-03T09:54:44.999Z</time>
      </trkpt>
      <trkpt lat="49.231785" lon="7.115347">
        <ele>320.749299</ele>
        <time>2024-03-03T09:54:52.999Z</time>
      </trkpt>
      <trkpt lat="49.231878" lon="7.115401">
        <ele>320.485917</ele>
        <time>2024-03-03T09:55:00.999Z</time>
      </trkpt>
      <trkpt lat="49.231988" lon="7.115363">
        <ele>320.187306</ele>
        <time>2024-03-03T09:55:12.999Z</time>
      </trkpt>
      <trkpt lat="49.232090" lon="7.115368">
        <ele>319.917062</ele>
        <time>2024-03-03T09:55:17.999Z</time>
      </trkpt>
      <trkpt lat="49.232159" lon="7.115461">
        <ele>319.673653</ele>
        <time>2024-03-03T09:55:30.999Z</time>
      </trkpt>
      <trkpt lat="49.232247" lon="7.115514">
        <ele>319.423246</ele>
        <time>2024-03-03T09:55:34.999Z</time>
      </trkpt>
      <trkpt lat="49.232324" lon="7.115591">
        <ele>319.179720</ele>
        <time>2024-03-03T09:55:41.998Z</time>
      </trkpt>
      <trkpt lat="49.232403" lon="7.115680">
        <ele>318.920010</ele>
        <time>2024-03-03T09:55:51.998Z</time>
      </trkpt>
      <trkpt lat="49.232493" lon="7.115730">
        <ele>318.666483</ele>
        <time>2024-03-03T09:55:58.998Z</time>
      </trkpt>
      <trkpt lat="49.232573" lon="7.115812">
        <ele>318.411561</ele>
        <time>2024-03-03T09:56:07.998Z</time>
      </trkpt>
      <trkpt lat="49.232647" lon="7.115893">
        <ele>318.170692</ele>
        <time>2024-03-03T09:56:11.998Z</time>
      </trkpt>
      <trkpt lat="49.232737" lon="7.115937">
        <ele>317.920513</ele>
        <time>2024-03-03T09:56:22.999Z</time>
      </trkpt>
      <trkpt lat="49.232820" lon="7.115991">
        <ele>317.681708</ele>
        <time>2024-03-03T09:56:30.999Z</time>
      </trkpt>
      <trkpt lat="49.232916" lon="7.116051">
        <ele>317.407134</ele>
        <time>2024-03-03T09:56:37.999Z</time>
      </trkpt>
      <trkpt lat="49.233009" lon="7.116178">
        <ele>317.158666</ele>
        <time>2024-03-03T09:56:49.999Z</time>
      </trkpt>
      <trkpt lat="49.233069" lon="7.116281">
        <ele>317.028565</ele>
        <time>2024-03-03T09:57:03.999Z</time>
      </trkpt>
      <trkpt lat="49.233121" lon="7.116405">
        <ele>316.889660</ele>
        <time>2024-03-03T09:57:11.999Z</time>
      </trkpt>
      <trkpt lat="49.233225" lon="7.116456">
        <ele>316.732030</ele>
        <time>2024-03-03T09:57:15.999Z</time>
      </trkpt>
      <trkpt lat="49.233304" lon="7.116524">
        <ele>316.601217</ele>
        <time>2024-03-03T09:57:23.999Z</time>
      </trkpt>
      <trkpt lat="49.233417" lon="7.116533">
        <ele>316.437884</ele>
        <time>2024-03-03T09:57:29.999Z</time>
      </trkpt>
      <trkpt lat="49.233486" lon="7.116641">
        <ele>316.295467</ele>
        <time>2024-03-03T09:57:38.999Z</time>
      </trkpt>
      <trkpt lat="49.233569" lon="7.116731">
        <ele>316.148667</ele>
        <time>2024-03-03T09:57:50.999Z</time>
      </trkpt>
      <trkpt lat="49.233659" lon="7.116787">
        <ele>316.008440</ele>
        <time>2024-03-03T09:57:54.998Z</time>
      </trkpt>
      <trkpt lat="49.233751" lon="7.116797">
        <ele>315.875306</ele>
        <time>2024-03-03T09:58:06.998Z</time>
      </trkpt>
      <trkpt lat="49.233834" lon="7.116878">
        <ele>315.733240</ele>
        <time>2024-03-03T09:58:15.998Z</time>
      </trkpt>
      <trkpt lat="49.233925" lon="7.116866">
        <ele>315.601398</ele>
        <time>2024-03-03T09:58:25.999Z</time>
      </trkpt>
      <trkpt lat="49.234020" lon="7.116909">
        <ele>315.458403</ele>
        <time>2024-03-03T09:58:30.999Z</time>
      </trkpt>
      <trkpt lat="49.234131" lon="7.116923">
        <ele>315.297635</ele>
        <time>2024-03-03T09:58:37.999Z</time>
      </trkpt>
      <trkpt lat="49.234234" lon="7.116910">
        <ele>315.148453</ele>
        <time>2024-03-03T09:58:42.999Z</time>
      </trkpt>
      <trkpt lat="49.234340" lon="7.116941">
        <ele>314.992680</ele>
        <time>2024-03-03T09:58:54.999Z</time>
      </trkpt>
      <trkpt lat="49.234426" lon="7.117000">
        <ele>314.856654</ele>
        <time>2024-03-03T09:59:03.999Z</time>
      </trkpt>
      <trkpt lat="49.234531" lon="7.117059">
        <ele>314.695209</ele>
        <time>2024-03-03T09:59:09.999Z</time>
      </trkpt>
      <trkpt lat="49.234621" lon="7.117120">
        <ele>314.398686</ele>
        <time>2024-03-03T09:59:15.999Z</time>
      </trkpt>
      <trkpt lat="49.234637" lon="7.117271">
        <ele>314.046137</ele>
        <time>2024-03-03T09:59:36.999Z</time>
      </trkpt>
      <trkpt lat="49.234698" lon="7.117375">
        <ele>313.723958</ele>
        <time>2024-03-03T09:59:44.999Z</time>
      </trkpt>
      <trkpt lat="49.234729" lon="7.117536">
        <ele>313.337120</ele>
        <time>2024-03-03T09:59:54.999Z</time>
      </trkpt>
      <trkpt lat="49.234752" lon="7.117673">
        <ele>313.011119</ele>
        <time>2024-03-03T10:00:03.999Z</time>
      </trkpt>
      <trkpt lat="49.234790" lon="7.117807">
        <ele>312.674435</ele>
        <time>2024-03-03T10:00:09.999Z</time>
      </trkpt>
      <trkpt lat="49.234758" lon="7.117979">
        <ele>312.262266</ele>
        <time>2024-03-03T10:00:19.998Z</time>
      </trkpt>
      <trkpt lat="49.234733" lon="7.118112">
        <ele>311.943306</ele>
        <time>2024-03-03T10:00:27.000Z</time>
      </trkpt>
      <trkpt lat="49.234670" lon="7.118238">
        <ele>311.577569</ele>
        <time>2024-03-03T10:00:38.000Z</time>
      </trkpt>
      <trkpt lat="49.234623" lon="7.118371">
        <ele>311.229046</ele>
        <time>2024-03-03T10:00:45.999Z</time>
      </trkpt>
      <trkpt lat="49.234631" lon="7.118516">
        <ele>310.893686</ele>
        <time>2024-03-03T10:00:54.999Z</time>
      </trkpt>
      <trkpt lat="49.234593" lon="7.118647">
        <ele>310.563331</ele>
        <time>2024-03-03T10:01:00.999Z</time>
      </trkpt>
      <trkpt lat="49.234541" lon="7.118784">
        <ele>310.198131</ele>
        <time>2024-03-03T10:01:08.999Z</time>
      </trkpt>
      <trkpt lat="49.234531" lon="7.118921">
        <ele>309.880431</ele>
        <time>2024-03-03T10:01:15.999Z</time>
      </trkpt>
      <trkpt lat="49.234545" lon="7.119073">
        <ele>309.526661</ele>
        <time>2024-03-03T10:01:24.999Z</time>
      </trkpt>
      <trkpt lat="49.234564" lon="7.119212">
        <ele>309.199376</ele>
        <time>2024-03-03T10:01:32.999Z</time>
      </trkpt>
      <trkpt lat="49.234574" lon="7.119369">
        <ele>308.835834</ele>
        <time>2024-03-03T10:01:40.999Z</time>
      </trkpt>
      <trkpt lat="49.234608" lon="7.119511">
        <ele>308.487270</ele>
        <time>2024-03-03T10:01:49.999Z</time>
      </trkpt>
      <trkpt lat="49.234594" lon="7.119656">
        <ele>308.431154</ele>
        <time>2024-03-03T10:01:57.999Z</time>
      </trkpt>
      <trkpt lat="49.234597" lon="7.119844">
        <ele>308.749969</ele>
        <time>2024-03-03T10:02:05.999Z</time>
      </trkpt>
      <trkpt lat="49.234575" lon="7.119984">
        <ele>308.994090</ele>
        <time>2024-03-03T10:02:12.999Z</time>
      </trkpt>
      <trkpt lat="49.234578" lon="7.120168">
        <ele>309.306125</ele>
        <time>2024-03-03T10:02:21.999Z</time>
      </trkpt>
      <trkpt lat="49.234623" lon="7.120287">
        <ele>309.539258</ele>
        <time>2024-03-03T10:02:30.998Z</time>
      </trkpt>
      <trkpt lat="49.234692" lon="7.120384">
        <ele>309.782437</ele>
        <time>2024-03-03T10:02:37.000Z</time>
      </trkpt>
      <trkpt lat="49.234766" lon="7.120479">
        <ele>310.033140</ele>
        <time>2024-03-03T10:02:47.000Z</time>
      </trkpt>
      <trkpt lat="49.234857" lon="7.120545">
        <ele>310.294563</ele>
        <time>2024-03-03T10:02:55.000Z</time>
      </trkpt>
      <trkpt lat="49.234940" lon="7.120627">
        <ele>310.551007</ele>
        <time>2024-03-03T10:03:04.999Z</time>
      </trkpt>
      <trkpt lat="49.235015" lon="7.120704">
        <ele>310.785439</ele>
        <time>2024-03-03T10:03:10.999Z</time>
      </trkpt>
      <trkpt lat="49.235077" lon="7.120831">
        <ele>311.054266</ele>
        <time>2024-03-03T10:03:18.999Z</time>
      </trkpt>
      <trkpt lat="49.235103" lon="7.120964">
        <ele>311.289629</ele>
        <time>2024-03-03T10:03:27.999Z</time>
      </trkpt>
      <trkpt lat="49.235125" lon="7.121099">
        <ele>311.525515</ele>
        <time>2024-03-03T10:03:50.999Z</time>
      </trkpt>
      <trkpt lat="49.235134" lon="7.121238">
        <ele>311.762317</ele>
        <time>2024-03-03T10:04:00.999Z</time>
      </trkpt>
      <trkpt lat="49.235045" lon="7.121185">
        <ele>312.010246</ele>
        <time>2024-03-03T10:04:11.999Z</time>
      </trkpt>
      <trkpt lat="49.235011" lon="7.121056">
        <ele>312.246084</ele>
        <time>2024-03-03T10:04:31.999Z</time>
      </trkpt>
      <trkpt lat="49.235063" lon="7.121184">
        <ele>312.501654</ele>
        <time>2024-03-03T10:05:06.000Z</time>
      </trkpt>
      <trkpt lat="49.235156" lon="7.121217">
        <ele>312.749510</ele>
        <time>2024-03-03T10:05:22.999Z</time>
      </trkpt>
      <trkpt lat="49.235189" lon="7.121350">
        <ele>312.978584</ele>
        <time>2024-03-03T10:05:35.999Z</time>
      </trkpt>
      <trkpt lat="49.235249" lon="7.121477">
        <ele>312.888382</ele>
        <time>2024-03-03T10:05:42.999Z</time>
      </trkpt>
      <trkpt lat="49.235301" lon="7.121597">
        <ele>312.805507</ele>
        <time>2024-03-03T10:05:51.999Z</time>
      </trkpt>
      <trkpt lat="49.235353" lon="7.121726">
        <ele>312.718271</ele>
        <time>2024-03-03T10:05:59.999Z</time>
      </trkpt>
      <trkpt lat="49.235447" lon="7.121794">
        <ele>312.626655</ele>
        <time>2024-03-03T10:06:09.998Z</time>
      </trkpt>
      <trkpt lat="49.235520" lon="7.121692">
        <ele>312.539570</ele>
        <time>2024-03-03T10:06:38.998Z</time>
      </trkpt>
      <trkpt lat="49.235601" lon="7.121632">
        <ele>312.460276</ele>
        <time>2024-03-03T10:06:45.000Z</time>
      </trkpt>
      <trkpt lat="49.235667" lon="7.121526">
        <ele>312.375994</ele>
        <time>2024-03-03T10:06:58.000Z</time>
      </trkpt>
      <trkpt lat="49.235767" lon="7.121504">
        <ele>312.286962</ele>
        <time>2024-03-03T10:07:06.000Z</time>
      </trkpt>
      <trkpt lat="49.235863" lon="7.121436">
        <ele>312.193750</ele>
        <time>2024-03-03T10:07:28.999Z</time>
      </trkpt>
      <trkpt lat="49.235945" lon="7.121352">
        <ele>312.106810</ele>
        <time>2024-03-03T10:07:36.999Z</time>
      </trkpt>
      <trkpt lat="49.236026" lon="7.121272">
        <ele>312.021871</ele>
        <time>2024-03-03T10:07:42.999Z</time>
      </trkpt>
      <trkpt lat="49.236047" lon="7.121115">
        <ele>311.929654</ele>
        <time>2024-03-03T10:07:51.999Z</time>
      </trkpt>
      <trkpt lat="49.236129" lon="7.121022">
        <ele>311.839732</ele>
        <time>2024-03-03T10:07:58.999Z</time>
      </trkpt>
      <trkpt lat="49.236159" lon="7.120879">
        <ele>311.753304</ele>
        <time>2024-03-03T10:08:08.999Z</time>
      </trkpt>
      <trkpt lat="49.236218" lon="7.120744">
        <ele>311.659827</ele>
        <time>2024-03-03T10:08:18.999Z</time>
      </trkpt>
      <trkpt lat="49.236277" lon="7.120639">
        <ele>311.580116</ele>
        <time>2024-03-03T10:08:24.999Z</time>
      </trkpt>
      <trkpt lat="49.236326" lon="7.120518">
        <ele>311.498186</ele>
        <time>2024-03-03T10:08:31.999Z</time>
      </trkpt>
      <trkpt lat="49.236350" lon="7.120381">
        <ele>311.416566</ele>
        <time>2024-03-03T10:08:41.999Z</time>
      </trkpt>
      <trkpt lat="49.236410" lon="7.120277">
        <ele>311.320747</ele>
        <time>2024-03-03T10:08:49.999Z</time>
      </trkpt>
      <trkpt lat="49.236448" lon="7.120139">
        <ele>311.211586</ele>
        <time>2024-03-03T10:08:58.000Z</time>
      </trkpt>
      <trkpt lat="49.236465" lon="7.119991">
        <ele>311.102058</ele>
        <time>2024-03-03T10:09:06.000Z</time>
      </trkpt>
      <trkpt lat="49.236524" lon="7.119870">
        <ele>310.991987</ele>
        <time>2024-03-03T10:09:14.000Z</time>
      </trkpt>
      <trkpt lat="49.236569" lon="7.119750">
        <ele>310.891125</ele>
        <time>2024-03-03T10:09:20.000Z</time>
      </trkpt>
      <trkpt lat="49.236640" lon="7.119664">
        <ele>310.790078</ele>
        <time>2024-03-03T10:09:28.000Z</time>
      </trkpt>
      <trkpt lat="49.236712" lon="7.119567">
        <ele>310.683036</ele>
        <time>2024-03-03T10:09:35.000Z</time>
      </trkpt>
      <trkpt lat="49.236748" lon="7.119440">
        <ele>310.582124</ele>
        <time>2024-03-03T10:09:41.000Z</time>
      </trkpt>
      <trkpt lat="49.236794" lon="7.119317">
        <ele>310.478811</ele>
        <time>2024-03-03T10:09:50.999Z</time>
      </trkpt>
      <trkpt lat="49.236873" lon="7.119233">
        <ele>310.371455</ele>
        <time>2024-03-03T10:09:57.999Z</time>
      </trkpt>
      <trkpt lat="49.236925" lon="7.119110">
        <ele>310.264655</ele>
        <time>2024-03-03T10:10:06.999Z</time>
      </trkpt>
      <trkpt lat="49.237004" lon="7.119010">
        <ele>310.150247</ele>
        <time>2024-03-03T10:10:15.999Z</time>
      </trkpt>
      <trkpt lat="49.237080" lon="7.118911">
        <ele>310.038874</ele>
        <time>2024-03-03T10:10:24.999Z</time>
      </trkpt>
      <trkpt lat="49.237153" lon="7.118825">
        <ele>309.936067</ele>
        <time>2024-03-03T10:10:32.999Z</time>
      </trkpt>
      <trkpt lat="49.237242" lon="7.118868">
        <ele>309.831892</ele>
        <time>2024-03-03T10:10:38.999Z</time>
      </trkpt>
      <trkpt lat="49.237329" lon="7.118906">
        <ele>309.730904</ele>
        <time>2024-03-03T10:10:46.999Z</time>
      </trkpt>
      <trkpt lat="49.237416" lon="7.118956">
        <ele>309.627175</ele>
        <time>2024-03-03T10:10:54.999Z</time>
      </trkpt>
      <trkpt lat="49.237483" lon="7.119080">
        <ele>309.509865</ele>
        <time>2024-03-03T10:11:08.000Z</time>
      </trkpt>
      <trkpt lat="49.237536" lon="7.119201">
        <ele>309.403668</ele>
        <time>2024-03-03T10:11:19.000Z</time>
      </trkpt>
      <trkpt lat="49.237596" lon="7.119318">
        <ele>309.520320</ele>
        <time>2024-03-03T10:11:27.000Z</time>
      </trkpt>
      <trkpt lat="49.237672" lon="7.119408">
        <ele>309.671127</ele>
        <time>2024-03-03T10:11:34.000Z</time>
      </trkpt>
      <trkpt lat="49.237659" lon="7.119558">
        <ele>309.826218</ele>
        <time>2024-03-03T10:11:42.000Z</time>
      </trkpt>
      <trkpt lat="49.237731" lon="7.119685">
        <ele>309.998609</ele>
        <time>2024-03-03T10:11:50.000Z</time>
      </trkpt>
      <trkpt lat="49.237762" lon="7.119836">
        <ele>310.160847</ele>
        <time>2024-03-03T10:11:58.000Z</time>
      </trkpt>
      <trkpt lat="49.237791" lon="7.119973">
        <ele>310.308460</ele>
        <time>2024-03-03T10:12:06.000Z</time>
      </trkpt>
      <trkpt lat="49.237837" lon="7.120103">
        <ele>310.460012</ele>
        <time>2024-03-03T10:12:12.999Z</time>
      </trkpt>
      <trkpt lat="49.237855" lon="7.120247">
        <ele>310.610285</ele>
        <time>2024-03-03T10:12:21.999Z</time>
      </trkpt>
      <trkpt lat="49.237934" lon="7.120383">
        <ele>310.796858</ele>
        <time>2024-03-03T10:12:30.998Z</time>
      </trkpt>
      <trkpt lat="49.237948" lon="7.120523">
        <ele>310.942024</ele>
        <time>2024-03-03T10:12:37.998Z</time>
      </trkpt>
      <trkpt lat="49.238011" lon="7.120625">
        <ele>311.085934</ele>
        <time>2024-03-03T10:12:44.998Z</time>
      </trkpt>
      <trkpt lat="49.238002" lon="7.120783">
        <ele>311.248490</ele>
        <time>2024-03-03T10:12:51.998Z</time>
      </trkpt>
      <trkpt lat="49.238055" lon="7.120917">
        <ele>311.409068</ele>
        <time>2024-03-03T10:12:58.998Z</time>
      </trkpt>
      <trkpt lat="49.238118" lon="7.121033">
        <ele>311.563716</ele>
        <time>2024-03-03T10:13:08.999Z</time>
      </trkpt>
      <trkpt lat="49.238155" lon="7.121168">
        <ele>311.713780</ele>
        <time>2024-03-03T10:13:18.999Z</time>
      </trkpt>
      <trkpt lat="49.238221" lon="7.121283">
        <ele>311.870710</ele>
        <time>2024-03-03T10:13:26.999Z</time>
      </trkpt>
      <trkpt lat="49.238249" lon="7.121440">
        <ele>312.037520</ele>
        <time>2024-03-03T10:13:32.999Z</time>
      </trkpt>
      <trkpt lat="49.238305" lon="7.121551">
        <ele>312.181295</ele>
        <time>2024-03-03T10:13:40.999Z</time>
      </trkpt>
      <trkpt lat="49.238338" lon="7.121682">
        <ele>312.494671</ele>
        <time>2024-03-03T10:13:47.999Z</time>
      </trkpt>
      <trkpt lat="49.238353" lon="7.121830">
        <ele>312.878509</ele>
        <time>2024-03-03T10:13:58.999Z</time>
      </trkpt>
      <trkpt lat="49.238416" lon="7.121957">
        <ele>313.287271</ele>
        <time>2024-03-03T10:14:06.999Z</time>
      </trkpt>
      <trkpt lat="49.238465" lon="7.122082">
        <ele>313.660924</ele>
        <time>2024-03-03T10:14:13.999Z</time>
      </trkpt>
      <trkpt lat="49.238518" lon="7.122204">
        <ele>314.036472</ele>
        <time>2024-03-03T10:14:20.999Z</time>
      </trkpt>
      <trkpt lat="49.238609" lon="7.122299">
        <ele>314.468747</ele>
        <time>2024-03-03T10:14:27.998Z</time>
      </trkpt>
      <trkpt lat="49.238678" lon="7.122391">
        <ele>314.827835</ele>
        <time>2024-03-03T10:14:36.998Z</time>
      </trkpt>
      <trkpt lat="49.238710" lon="7.122529">
        <ele>315.203143</ele>
        <time>2024-03-03T10:14:46.998Z</time>
      </trkpt>
      <trkpt lat="49.238777" lon="7.122670">
        <ele>315.650065</ele>
        <time>2024-03-03T10:14:55.998Z</time>
      </trkpt>
      <trkpt lat="49.238824" lon="7.122821">
        <ele>316.078770</ele>
        <time>2024-03-03T10:15:07.998Z</time>
      </trkpt>
      <trkpt lat="49.238907" lon="7.122899">
        <ele>316.460999</ele>
        <time>2024-03-03T10:15:13.999Z</time>
      </trkpt>
      <trkpt lat="49.238996" lon="7.122951">
        <ele>316.834896</ele>
        <time>2024-03-03T10:15:19.999Z</time>
      </trkpt>
      <trkpt lat="49.239081" lon="7.123029">
        <ele>317.223837</ele>
        <time>2024-03-03T10:15:26.999Z</time>
      </trkpt>
      <trkpt lat="49.239172" lon="7.123143">
        <ele>317.685292</ele>
        <time>2024-03-03T10:15:34.999Z</time>
      </trkpt>
      <trkpt lat="49.239273" lon="7.123184">
        <ele>318.095425</ele>
        <time>2024-03-03T10:15:43.999Z</time>
      </trkpt>
      <trkpt lat="49.239359" lon="7.123256">
        <ele>318.480130</ele>
        <time>2024-03-03T10:15:50.999Z</time>
      </trkpt>
      <trkpt lat="49.239449" lon="7.123339">
        <ele>318.892492</ele>
        <time>2024-03-03T10:16:00.999Z</time>
      </trkpt>
      <trkpt lat="49.239540" lon="7.123408">
        <ele>319.289017</ele>
        <time>2024-03-03T10:16:08.999Z</time>
      </trkpt>
      <trkpt lat="49.239579" lon="7.123538">
        <ele>319.615804</ele>
        <time>2024-03-03T10:16:16.999Z</time>
      </trkpt>
      <trkpt lat="49.239678" lon="7.123607">
        <ele>319.996327</ele>
        <time>2024-03-03T10:16:30.999Z</time>
      </trkpt>
      <trkpt lat="49.239679" lon="7.123745">
        <ele>320.311558</ele>
        <time>2024-03-03T10:16:39.999Z</time>
      </trkpt>
      <trkpt lat="49.239771" lon="7.123708">
        <ele>320.644330</ele>
        <time>2024-03-03T10:17:18.999Z</time>
      </trkpt>
      <trkpt lat="49.239763" lon="7.123846">
        <ele>320.960781</ele>
        <time>2024-03-03T10:17:28.999Z</time>
      </trkpt>
      <trkpt lat="49.239851" lon="7.123918">
        <ele>321.309820</ele>
        <time>2024-03-03T10:17:38.999Z</time>
      </trkpt>
      <trkpt lat="49.239947" lon="7.123864">
        <ele>321.667608</ele>
        <time>2024-03-03T10:18:00.999Z</time>
      </trkpt>
      <trkpt lat="49.240020" lon="7.123781">
        <ele>321.985673</ele>
        <time>2024-03-03T10:18:09.999Z</time>
      </trkpt>
      <trkpt lat="49.240074" lon="7.123668">
        <ele>322.305531</ele>
        <time>2024-03-03T10:18:14.999Z</time>
      </trkpt>
      <trkpt lat="49.240032" lon="7.123515">
        <ele>322.684636</ele>
        <time>2024-03-03T10:18:32.999Z</time>
      </trkpt>
      <trkpt lat="49.240065" lon="7.123374">
        <ele>323.026765</ele>
        <time>2024-03-03T10:18:43.999Z</time>
      </trkpt>
      <trkpt lat="49.240052" lon="7.123237">
        <ele>323.342979</ele>
        <time>2024-03-03T10:18:52.999Z</time>
      </trkpt>
      <trkpt lat="49.240081" lon="7.123094">
        <ele>323.685003</ele>
        <time>2024-03-03T10:19:06.998Z</time>
      </trkpt>
      <trkpt lat="49.240110" lon="7.122963">
        <ele>324.000956</ele>
        <time>2024-03-03T10:19:16.998Z</time>
      </trkpt>
      <trkpt lat="49.240071" lon="7.122829">
        <ele>324.336063</ele>
        <time>2024-03-03T10:19:23.999Z</time>
      </trkpt>
      <trkpt lat="49.240027" lon="7.122703">
        <ele>324.662444</ele>
        <time>2024-03-03T10:19:31.999Z</time>
      </trkpt>
      <trkpt lat="49.240006" lon="7.122559">
        <ele>324.999464</ele>
        <time>2024-03-03T10:19:39.999Z</time>
      </trkpt>
      <trkpt lat="49.239975" lon="7.122408">
        <ele>325.361018</ele>
        <time>2024-03-03T10:19:49.999Z</time>
      </trkpt>
      <trkpt lat="49.240015" lon="7.122279">
        <ele>325.469602</ele>
        <time>2024-03-03T10:19:55.999Z</time>
      </trkpt>
      <trkpt lat="49.240017" lon="7.122131">
        <ele>325.206622</ele>
        <time>2024-03-03T10:20:02.999Z</time>
      </trkpt>
      <trkpt lat="49.239990" lon="7.122000">
        <ele>324.962579</ele>
        <time>2024-03-03T10:20:08.999Z</time>
      </trkpt>
      <trkpt lat="49.239962" lon="7.121866">
        <ele>324.712631</ele>
        <time>2024-03-03T10:20:16.999Z</time>
      </trkpt>
      <trkpt lat="49.239970" lon="7.121718">
        <ele>324.448808</ele>
        <time>2024-03-03T10:20:28.999Z</time>
      </trkpt>
      <trkpt lat="49.239968" lon="7.121567">
        <ele>324.180499</ele>
        <time>2024-03-03T10:20:37.999Z</time>
      </trkpt>
      <trkpt lat="49.239941" lon="7.121422">
        <ele>323.912633</ele>
        <time>2024-03-03T10:20:45.999Z</time>
      </trkpt>
      <trkpt lat="49.239898" lon="7.121286">
        <ele>323.644188</ele>
        <time>2024-03-03T10:20:54.999Z</time>
      </trkpt>
      <trkpt lat="49.239863" lon="7.121157">
        <ele>323.396017</ele>
        <time>2024-03-03T10:21:02.999Z</time>
      </trkpt>
      <trkpt lat="49.239815" lon="7.121038">
        <ele>323.147520</ele>
        <time>2024-03-03T10:21:11.999Z</time>
      </trkpt>
      <trkpt lat="49.239829" lon="7.120890">
        <ele>322.881850</ele>
        <time>2024-03-03T10:21:19.998Z</time>
      </trkpt>
      <trkpt lat="49.239815" lon="7.120737">
        <ele>322.607386</ele>
        <time>2024-03-03T10:21:26.999Z</time>
      </trkpt>
      <trkpt lat="49.239810" lon="7.120586">
        <ele>322.338787</ele>
        <time>2024-03-03T10:21:34.999Z</time>
      </trkpt>
      <trkpt lat="49.239791" lon="7.120443">
        <ele>322.079538</ele>
        <time>2024-03-03T10:21:40.999Z</time>
      </trkpt>
      <trkpt lat="49.239762" lon="7.120285">
        <ele>321.787967</ele>
        <time>2024-03-03T10:21:47.999Z</time>
      </trkpt>
      <trkpt lat="49.239739" lon="7.120139">
        <ele>321.521152</ele>
        <time>2024-03-03T10:21:54.999Z</time>
      </trkpt>
      <trkpt lat="49.239712" lon="7.119972">
        <ele>321.215512</ele>
        <time>2024-03-03T10:22:03.999Z</time>
      </trkpt>
      <trkpt lat="49.239706" lon="7.119819">
        <ele>320.943214</ele>
        <time>2024-03-03T10:22:12.999Z</time>
      </trkpt>
      <trkpt lat="49.239683" lon="7.119677">
        <ele>320.683301</ele>
        <time>2024-03-03T10:22:18.999Z</time>
      </trkpt>
      <trkpt lat="49.239656" lon="7.119545">
        <ele>320.698898</ele>
        <time>2024-03-03T10:22:25.999Z</time>
      </trkpt>
      <trkpt lat="49.239601" lon="7.119415">
        <ele>320.732160</ele>
        <time>2024-03-03T10:22:33.999Z</time>
      </trkpt>
      <trkpt lat="49.239622" lon="7.119272">
        <ele>320.763631</ele>
        <time>2024-03-03T10:22:51.999Z</time>
      </trkpt>
      <trkpt lat="49.239602" lon="7.119113">
        <ele>320.798399</ele>
        <time>2024-03-03T10:23:01.999Z</time>
      </trkpt>
      <trkpt lat="49.239576" lon="7.118967">
        <ele>320.830893</ele>
        <time>2024-03-03T10:23:07.999Z</time>
      </trkpt>
      <trkpt lat="49.239587" lon="7.118827">
        <ele>320.861170</ele>
        <time>2024-03-03T10:23:13.999Z</time>
      </trkpt>
      <trkpt lat="49.239626" lon="7.118680">
        <ele>320.895239</ele>
        <time>2024-03-03T10:23:20.999Z</time>
      </trkpt>
      <trkpt lat="49.239703" lon="7.118590">
        <ele>320.927093</ele>
        <time>2024-03-03T10:23:28.999Z</time>
      </trkpt>
      <trkpt lat="49.239794" lon="7.118525">
        <ele>320.960115</ele>
        <time>2024-03-03T10:23:39.999Z</time>
      </trkpt>
      <trkpt lat="49.239885" lon="7.118512">
        <ele>320.990171</ele>
        <time>2024-03-03T10:23:52.999Z</time>
      </trkpt>
      <trkpt lat="49.240000" lon="7.118508">
        <ele>321.028001</ele>
        <time>2024-03-03T10:23:59.999Z</time>
      </trkpt>
      <trkpt lat="49.240095" lon="7.118463">
        <ele>321.060703</ele>
        <time>2024-03-03T10:24:07.999Z</time>
      </trkpt>
      <trkpt lat="49.240186" lon="7.118470">
        <ele>321.090668</ele>
        <time>2024-03-03T10:24:14.999Z</time>
      </trkpt>
      <trkpt lat="49.240277" lon="7.118422">
        <ele>321.122319</ele>
        <time>2024-03-03T10:24:23.999Z</time>
      </trkpt>
      <trkpt lat="49.240382" lon="7.118406">
        <ele>321.157021</ele>
        <time>2024-03-03T10:24:30.999Z</time>
      </trkpt>
      <trkpt lat="49.240484" lon="7.118348">
        <ele>321.192802</ele>
        <time>2024-03-03T10:24:42.999Z</time>
      </trkpt>
      <trkpt lat="49.240577" lon="7.118329">
        <ele>321.223658</ele>
        <time>2024-03-03T10:24:50.999Z</time>
      </trkpt>
      <trkpt lat="49.240651" lon="7.118230">
        <ele>321.255970</ele>
        <time>2024-03-03T10:24:57.999Z</time>
      </trkpt>
      <trkpt lat="49.240751" lon="7.118218">
        <ele>321.470225</ele>
        <time>2024-03-03T10:25:06.999Z</time>
      </trkpt>
      <trkpt lat="49.240848" lon="7.118198">
        <ele>321.720730</ele>
        <time>2024-03-03T10:25:15.999Z</time>
      </trkpt>
      <trkpt lat="49.240936" lon="7.118131">
        <ele>321.972253</ele>
        <time>2024-03-03T10:25:24.999Z</time>
      </trkpt>
      <trkpt lat="49.241044" lon="7.118107">
        <ele>322.251567</ele>
        <time>2024-03-03T10:25:33.999Z</time>
      </trkpt>
      <trkpt lat="49.241159" lon="7.118082">
        <ele>322.548852</ele>
        <time>2024-03-03T10:25:41.000Z</time>
      </trkpt>
      <trkpt lat="49.241257" lon="7.118074">
        <ele>322.800034</ele>
        <time>2024-03-03T10:25:52.000Z</time>
      </trkpt>
      <trkpt lat="49.241344" lon="7.118145">
        <ele>323.052339</ele>
        <time>2024-03-03T10:26:00.000Z</time>
      </trkpt>
      <trkpt lat="49.241432" lon="7.118180">
        <ele>323.285040</ele>
        <time>2024-03-03T10:26:07.000Z</time>
      </trkpt>
      <trkpt lat="49.241503" lon="7.118273">
        <ele>323.524146</ele>
        <time>2024-03-03T10:26:16.000Z</time>
      </trkpt>
      <trkpt lat="49.241583" lon="7.118355">
        <ele>323.770519</ele>
        <time>2024-03-03T10:26:24.000Z</time>
      </trkpt>
      <trkpt lat="49.241682" lon="7.118407">
        <ele>324.038388</ele>
        <time>2024-03-03T10:26:33.000Z</time>
      </trkpt>
      <trkpt lat="49.241780" lon="7.118527">
        <ele>324.359513</ele>
        <time>2024-03-03T10:26:42.999Z</time>
      </trkpt>
      <trkpt lat="49.241853" lon="7.118650">
        <ele>324.637274</ele>
        <time>2024-03-03T10:26:50.999Z</time>
      </trkpt>
      <trkpt lat="49.241922" lon="7.118757">
        <ele>324.888582</ele>
        <time>2024-03-03T10:26:56.999Z</time>
      </trkpt>
      <trkpt lat="49.241970" lon="7.118876">
        <ele>325.122318</ele>
        <time>2024-03-03T10:27:09.999Z</time>
      </trkpt>
      <trkpt lat="49.242048" lon="7.118976">
        <ele>325.382657</ele>
        <time>2024-03-03T10:27:16.999Z</time>
      </trkpt>
      <trkpt lat="49.242144" lon="7.118992">
        <ele>325.629814</ele>
        <time>2024-03-03T10:27:25.999Z</time>
      </trkpt>
      <trkpt lat="49.242209" lon="7.119097">
        <ele>325.878207</ele>
        <time>2024-03-03T10:27:34.999Z</time>
      </trkpt>
      <trkpt lat="49.242274" lon="7.119201">
        <ele>326.390888</ele>
        <time>2024-03-03T10:27:40.999Z</time>
      </trkpt>
      <trkpt lat="49.242344" lon="7.119304">
        <ele>326.920320</ele>
        <time>2024-03-03T10:27:51.000Z</time>
      </trkpt>
      <trkpt lat="49.242428" lon="7.119398">
        <ele>327.487731</ele>
        <time>2024-03-03T10:27:57.000Z</time>
      </trkpt>
      <trkpt lat="49.242518" lon="7.119477">
        <ele>328.053513</ele>
        <time>2024-03-03T10:28:20.000Z</time>
      </trkpt>
      <trkpt lat="49.242570" lon="7.119602">
        <ele>328.581310</ele>
        <time>2024-03-03T10:28:32.000Z</time>
      </trkpt>
      <trkpt lat="49.242652" lon="7.119698">
        <ele>329.144245</ele>
        <time>2024-03-03T10:28:40.000Z</time>
      </trkpt>
      <trkpt lat="49.242715" lon="7.119828">
        <ele>329.720759</ele>
        <time>2024-03-03T10:28:55.000Z</time>
      </trkpt>
      <trkpt lat="49.242779" lon="7.119928">
        <ele>330.219412</ele>
        <time>2024-03-03T10:29:03.000Z</time>
      </trkpt>
      <trkpt lat="49.242840" lon="7.120030">
        <ele>330.711977</ele>
        <time>2024-03-03T10:29:10.999Z</time>
      </trkpt>
      <trkpt lat="49.242889" lon="7.120170">
        <ele>331.277622</ele>
        <time>2024-03-03T10:29:17.999Z</time>
      </trkpt>
      <trkpt lat="49.242965" lon="7.120264">
        <ele>331.810420</ele>
        <time>2024-03-03T10:29:26.999Z</time>
      </trkpt>
      <trkpt lat="49.243034" lon="7.120360">
        <ele>332.318845</ele>
        <time>2024-03-03T10:29:35.999Z</time>
      </trkpt>
      <trkpt lat="49.243133" lon="7.120414">
        <ele>332.892039</ele>
        <time>2024-03-03T10:29:46.999Z</time>
      </trkpt>
      <trkpt lat="49.243212" lon="7.120499">
        <ele>333.418612</ele>
        <time>2024-03-03T10:29:56.000Z</time>
      </trkpt>
      <trkpt lat="49.243283" lon="7.120586">
        <ele>333.914537</ele>
        <time>2024-03-03T10:30:05.000Z</time>
      </trkpt>
      <trkpt lat="49.243362" lon="7.120685">
        <ele>334.471260</ele>
        <time>2024-03-03T10:30:16.000Z</time>
      </trkpt>
      <trkpt lat="49.243458" lon="7.120705">
        <ele>334.999697</ele>
        <time>2024-03-03T10:30:22.000Z</time>
      </trkpt>
      <trkpt lat="49.243548" lon="7.120712">
        <ele>335.491219</ele>
        <time>2024-03-03T10:30:33.000Z</time>
      </trkpt>
      <trkpt lat="49.243635" lon="7.120771">
        <ele>335.781998</ele>
        <time>2024-03-03T10:30:42.000Z</time>
      </trkpt>
      <trkpt lat="49.243718" lon="7.120833">
        <ele>335.941602</ele>
        <time>2024-03-03T10:30:57.999Z</time>
      </trkpt>
      <trkpt lat="49.243821" lon="7.120832">
        <ele>336.119628</ele>
        <time>2024-03-03T10:31:06.999Z</time>
      </trkpt>
      <trkpt lat="49.243913" lon="7.120812">
        <ele>336.280232</ele>
        <time>2024-03-03T10:31:12.999Z</time>
      </trkpt>
      <trkpt lat="49.244005" lon="7.120768">
        <ele>336.446812</ele>
        <time>2024-03-03T10:31:21.999Z</time>
      </trkpt>
      <trkpt lat="49.244080" lon="7.120684">
        <ele>336.607395</ele>
        <time>2024-03-03T10:31:28.998Z</time>
      </trkpt>
      <trkpt lat="49.244136" lon="7.120561">
        <ele>336.776599</ele>
        <time>2024-03-03T10:31:41.998Z</time>
      </trkpt>
      <trkpt lat="49.244222" lon="7.120490">
        <ele>336.945453</ele>
        <time>2024-03-03T10:31:51.998Z</time>
      </trkpt>
      <trkpt lat="49.244286" lon="7.120386">
        <ele>337.106718</ele>
        <time>2024-03-03T10:32:00.999Z</time>
      </trkpt>
      <trkpt lat="49.244338" lon="7.120246">
        <ele>337.288464</ele>
        <time>2024-03-03T10:32:07.999Z</time>
      </trkpt>
      <trkpt lat="49.244403" lon="7.120122">
        <ele>337.467900</ele>
        <time>2024-03-03T10:32:15.999Z</time>
      </trkpt>
      <trkpt lat="49.244444" lon="7.119988">
        <ele>337.634880</ele>
        <time>2024-03-03T10:32:25.999Z</time>
      </trkpt>
      <trkpt lat="49.244429" lon="7.119833">
        <ele>337.811683</ele>
        <time>2024-03-03T10:32:36.999Z</time>
      </trkpt>
      <trkpt lat="49.244404" lon="7.119698">
        <ele>337.970019</ele>
        <time>2024-03-03T10:32:44.999Z</time>
      </trkpt>
      <trkpt lat="49.244450" lon="7.119547">
        <ele>338.158036</ele>
        <time>2024-03-03T10:32:51.999Z</time>
      </trkpt>
      <trkpt lat="49.244397" lon="7.119410">
        <ele>338.337722</ele>
        <time>2024-03-03T10:32:56.999Z</time>
      </trkpt>
      <trkpt lat="49.244377" lon="7.119266">
        <ele>338.503839</ele>
        <time>2024-03-03T10:33:06.999Z</time>
      </trkpt>
      <trkpt lat="49.244380" lon="7.119113">
        <ele>338.676553</ele>
        <time>2024-03-03T10:33:14.999Z</time>
      </trkpt>
      <trkpt lat="49.244365" lon="7.118969">
        <ele>338.847916</ele>
        <time>2024-03-03T10:33:23.999Z</time>
      </trkpt>
      <trkpt lat="49.244299" lon="7.118834">
        <ele>339.061334</ele>
        <time>2024-03-03T10:33:32.999Z</time>
      </trkpt>
      <trkpt lat="49.244227" lon="7.118635">
        <ele>339.349232</ele>
        <time>2024-03-03T10:33:44.998Z</time>
      </trkpt>
      <trkpt lat="49.244185" lon="7.118496">
        <ele>339.543047</ele>
        <time>2024-03-03T10:33:52.998Z</time>
      </trkpt>
      <trkpt lat="49.244172" lon="7.118356">
        <ele>339.721985</ele>
        <time>2024-03-03T10:34:01.998Z</time>
      </trkpt>
      <trkpt lat="49.244130" lon="7.118206">
        <ele>339.928514</ele>
        <time>2024-03-03T10:34:10.999Z</time>
      </trkpt>
      <trkpt lat="49.244104" lon="7.118064">
        <ele>340.115133</ele>
        <time>2024-03-03T10:34:22.999Z</time>
      </trkpt>
      <trkpt lat="49.244064" lon="7.117932">
        <ele>340.299282</ele>
        <time>2024-03-03T10:34:30.999Z</time>
      </trkpt>
      <trkpt lat="49.243993" lon="7.117794">
        <ele>340.521616</ele>
        <time>2024-03-03T10:34:38.999Z</time>
      </trkpt>
      <trkpt lat="49.243963" lon="7.117651">
        <ele>340.711681</ele>
        <time>2024-03-03T10:34:46.999Z</time>
      </trkpt>
      <trkpt lat="49.243908" lon="7.117491">
        <ele>340.940495</ele>
        <time>2024-03-03T10:34:55.999Z</time>
      </trkpt>
      <trkpt lat="49.243850" lon="7.117368">
        <ele>341.132494</ele>
        <time>2024-03-03T10:35:04.999Z</time>
      </trkpt>
      <trkpt lat="49.243836" lon="7.117224">
        <ele>341.316720</ele>
        <time>2024-03-03T10:35:13.999Z</time>
      </trkpt>
      <trkpt lat="49.243794" lon="7.117094">
        <ele>341.500264</ele>
        <time>2024-03-03T10:35:27.999Z</time>
      </trkpt>
      <trkpt lat="49.243733" lon="7.116965">
        <ele>341.701822</ele>
        <time>2024-03-03T10:35:37.999Z</time>
      </trkpt>
      <trkpt lat="49.243688" lon="7.116825">
        <ele>341.899286</ele>
        <time>2024-03-03T10:35:46.999Z</time>
      </trkpt>
      <trkpt lat="49.243639" lon="7.116697">
        <ele>342.087050</ele>
        <time>2024-03-03T10:35:57.999Z</time>
      </trkpt>
      <trkpt lat="49.243644" lon="7.116547">
        <ele>342.284776</ele>
        <time>2024-03-03T10:36:07.998Z</time>
      </trkpt>
      <trkpt lat="49.243639" lon="7.116396">
        <ele>342.723409</ele>
        <time>2024-03-03T10:36:16.000Z</time>
      </trkpt>
      <trkpt lat="49.243579" lon="7.116269">
        <ele>343.178208</ele>
        <time>2024-03-03T10:36:24.000Z</time>
      </trkpt>
      <trkpt lat="49.243491" lon="7.116185">
        <ele>343.638982</ele>
        <time>2024-03-03T10:36:28.999Z</time>
      </trkpt>
      <trkpt lat="49.243543" lon="7.116070">
        <ele>344.044823</ele>
        <time>2024-03-03T10:36:35.999Z</time>
      </trkpt>
      <trkpt lat="49.243608" lon="7.115970">
        <ele>344.454212</ele>
        <time>2024-03-03T10:36:46.999Z</time>
      </trkpt>
      <trkpt lat="49.243607" lon="7.115830">
        <ele>344.860394</ele>
        <time>2024-03-03T10:36:55.999Z</time>
      </trkpt>
      <trkpt lat="49.243624" lon="7.115686">
        <ele>345.284932</ele>
        <time>2024-03-03T10:37:05.999Z</time>
      </trkpt>
      <trkpt lat="49.243650" lon="7.115544">
        <ele>345.712787</ele>
        <time>2024-03-03T10:37:15.999Z</time>
      </trkpt>
      <trkpt lat="49.243656" lon="7.115406">
        <ele>346.114029</ele>
        <time>2024-03-03T10:37:35.999Z</time>
      </trkpt>
      <trkpt lat="49.243707" lon="7.115283">
        <ele>346.536755</ele>
        <time>2024-03-03T10:37:42.999Z</time>
      </trkpt>
      <trkpt lat="49.243766" lon="7.115148">
        <ele>347.008064</ele>
        <time>2024-03-03T10:37:51.999Z</time>
      </trkpt>
      <trkpt lat="49.243828" lon="7.115032">
        <ele>347.442991</ele>
        <time>2024-03-03T10:37:59.999Z</time>
      </trkpt>
      <trkpt lat="49.243873" lon="7.114913">
        <ele>347.841958</ele>
        <time>2024-03-03T10:38:07.999Z</time>
      </trkpt>
      <trkpt lat="49.243920" lon="7.114771">
        <ele>348.303836</ele>
        <time>2024-03-03T10:38:19.000Z</time>
      </trkpt>
      <trkpt lat="49.244012" lon="7.114686">
        <ele>348.781280</ele>
        <time>2024-03-03T10:38:31.000Z</time>
      </trkpt>
      <trkpt lat="49.244104" lon="7.114641">
        <ele>349.210450</ele>
        <time>2024-03-03T10:38:36.000Z</time>
      </trkpt>
      <trkpt lat="49.244186" lon="7.114561">
        <ele>349.642477</ele>
        <time>2024-03-03T10:38:44.999Z</time>
      </trkpt>
      <trkpt lat="49.244267" lon="7.114484">
        <ele>350.066110</ele>
        <time>2024-03-03T10:38:51.999Z</time>
      </trkpt>
      <trkpt lat="49.244374" lon="7.114370">
        <ele>349.763378</ele>
        <time>2024-03-03T10:45:58.999Z</time>
      </trkpt>
      <trkpt lat="49.244459" lon="7.114249">
        <ele>349.086257</ele>
        <time>2024-03-03T10:46:17.999Z</time>
      </trkpt>
      <trkpt lat="49.244538" lon="7.114172">
        <ele>348.539854</ele>
        <time>2024-03-03T10:46:23.999Z</time>
      </trkpt>
      <trkpt lat="49.244607" lon="7.114039">
        <ele>347.892688</ele>
        <time>2024-03-03T10:46:33.999Z</time>
      </trkpt>
      <trkpt lat="49.244688" lon="7.113925">
        <ele>347.250809</ele>
        <time>2024-03-03T10:46:45.000Z</time>
      </trkpt>
      <trkpt lat="49.244784" lon="7.113878">
        <ele>346.662700</ele>
        <time>2024-03-03T10:46:54.000Z</time>
      </trkpt>
      <trkpt lat="49.244834" lon="7.113762">
        <ele>346.133170</ele>
        <time>2024-03-03T10:47:07.000Z</time>
      </trkpt>
      <trkpt lat="49.244907" lon="7.113636">
        <ele>345.491414</ele>
        <time>2024-03-03T10:47:16.000Z</time>
      </trkpt>
      <trkpt lat="49.244998" lon="7.113615">
        <ele>344.954407</ele>
        <time>2024-03-03T10:47:25.000Z</time>
      </trkpt>
      <trkpt lat="49.245102" lon="7.113599">
        <ele>344.344479</ele>
        <time>2024-03-03T10:47:33.000Z</time>
      </trkpt>
      <trkpt lat="49.245186" lon="7.113540">
        <ele>343.805239</ele>
        <time>2024-03-03T10:47:45.999Z</time>
      </trkpt>
      <trkpt lat="49.245282" lon="7.113521">
        <ele>343.240391</ele>
        <time>2024-03-03T10:47:56.999Z</time>
      </trkpt>
      <trkpt lat="49.245376" lon="7.113468">
        <ele>342.655892</ele>
        <time>2024-03-03T10:48:00.999Z</time>
      </trkpt>
      <trkpt lat="49.245431" lon="7.113352">
        <ele>342.109747</ele>
        <time>2024-03-03T10:48:14.999Z</time>
      </trkpt>
      <trkpt lat="49.245467" lon="7.113209">
        <ele>341.525898</ele>
        <time>2024-03-03T10:48:21.999Z</time>
      </trkpt>
      <trkpt lat="49.245487" lon="7.113067">
        <ele>340.972515</ele>
        <time>2024-03-03T10:48:33.999Z</time>
      </trkpt>
      <trkpt lat="49.245513" lon="7.112927">
        <ele>340.418036</ele>
        <time>2024-03-03T10:48:42.999Z</time>
      </trkpt>
      <trkpt lat="49.245546" lon="7.112778">
        <ele>339.818658</ele>
        <time>2024-03-03T10:48:51.000Z</time>
      </trkpt>
      <trkpt lat="49.245600" lon="7.112665">
        <ele>339.320330</ele>
        <time>2024-03-03T10:49:00.000Z</time>
      </trkpt>
      <trkpt lat="49.245613" lon="7.112527">
        <ele>338.827820</ele>
        <time>2024-03-03T10:49:09.000Z</time>
      </trkpt>
      <trkpt lat="49.245647" lon="7.112397">
        <ele>338.333137</ele>
        <time>2024-03-03T10:49:18.000Z</time>
      </trkpt>
      <trkpt lat="49.245718" lon="7.112263">
        <ele>337.723522</ele>
        <time>2024-03-03T10:49:26.000Z</time>
      </trkpt>
      <trkpt lat="49.245816" lon="7.112151">
        <ele>337.061934</ele>
        <time>2024-03-03T10:49:37.999Z</time>
      </trkpt>
      <trkpt lat="49.245866" lon="7.112026">
        <ele>336.544102</ele>
        <time>2024-03-03T10:49:47.999Z</time>
      </trkpt>
      <trkpt lat="49.245954" lon="7.111941">
        <ele>335.981186</ele>
        <time>2024-03-03T10:49:53.999Z</time>
      </trkpt>
      <trkpt lat="49.246019" lon="7.111841">
        <ele>335.482719</ele>
        <time>2024-03-03T10:50:02.999Z</time>
      </trkpt>
      <trkpt lat="49.246095" lon="7.111742">
        <ele>334.942907</ele>
        <time>2024-03-03T10:50:10.998Z</time>
      </trkpt>
      <trkpt lat="49.246195" lon="7.111667">
        <ele>334.340445</ele>
        <time>2024-03-03T10:50:15.998Z</time>
      </trkpt>
      <trkpt lat="49.246201" lon="7.111524">
        <ele>333.834287</ele>
        <time>2024-03-03T10:50:22.998Z</time>
      </trkpt>
      <trkpt lat="49.246278" lon="7.111428">
        <ele>333.297094</ele>
        <time>2024-03-03T10:50:29.998Z</time>
      </trkpt>
      <trkpt lat="49.246362" lon="7.111330">
        <ele>332.725769</ele>
        <time>2024-03-03T10:50:36.998Z</time>
      </trkpt>
      <trkpt lat="49.246444" lon="7.111235">
        <ele>332.169471</ele>
        <time>2024-03-03T10:50:43.998Z</time>
      </trkpt>
      <trkpt lat="49.246458" lon="7.111096">
        <ele>331.672677</ele>
        <time>2024-03-03T10:50:51.999Z</time>
      </trkpt>
      <trkpt lat="49.246535" lon="7.110987">
        <ele>331.105380</ele>
        <time>2024-03-03T10:51:01.999Z</time>
      </trkpt>
      <trkpt lat="49.246631" lon="7.110961">
        <ele>330.577879</ele>
        <time>2024-03-03T10:51:09.999Z</time>
      </trkpt>
      <trkpt lat="49.246731" lon="7.110942">
        <ele>330.032480</ele>
        <time>2024-03-03T10:51:18.999Z</time>
      </trkpt>
      <trkpt lat="49.246817" lon="7.111005">
        <ele>329.492314</ele>
        <time>2024-03-03T10:51:27.999Z</time>
      </trkpt>
      <trkpt lat="49.246910" lon="7.111042">
        <ele>328.947856</ele>
        <time>2024-03-03T10:51:34.999Z</time>
      </trkpt>
      <trkpt lat="49.246993" lon="7.111137">
        <ele>328.360761</ele>
        <time>2024-03-03T10:51:43.999Z</time>
      </trkpt>
      <trkpt lat="49.247075" lon="7.111203">
        <ele>327.835883</ele>
        <time>2024-03-03T10:51:50.999Z</time>
      </trkpt>
      <trkpt lat="49.247174" lon="7.111241">
        <ele>327.257566</ele>
        <time>2024-03-03T10:51:59.999Z</time>
      </trkpt>
      <trkpt lat="49.247263" lon="7.111288">
        <ele>326.724131</ele>
        <time>2024-03-03T10:52:06.999Z</time>
      </trkpt>
      <trkpt lat="49.247361" lon="7.111335">
        <ele>326.142245</ele>
        <time>2024-03-03T10:52:19.999Z</time>
      </trkpt>
      <trkpt lat="49.247454" lon="7.111386">
        <ele>325.582520</ele>
        <time>2024-03-03T10:52:24.998Z</time>
      </trkpt>
      <trkpt lat="49.247565" lon="7.111473">
        <ele>324.876002</ele>
        <time>2024-03-03T10:52:32.998Z</time>
      </trkpt>
      <trkpt lat="49.247659" lon="7.111497">
        <ele>324.336013</ele>
        <time>2024-03-03T10:52:40.998Z</time>
      </trkpt>
      <trkpt lat="49.247750" lon="7.111551">
        <ele>323.783034</ele>
        <time>2024-03-03T10:52:52.998Z</time>
      </trkpt>
      <trkpt lat="49.247831" lon="7.111637">
        <ele>323.224593</ele>
        <time>2024-03-03T10:52:59.999Z</time>
      </trkpt>
      <trkpt lat="49.247930" lon="7.111662">
        <ele>322.656048</ele>
        <time>2024-03-03T10:53:05.999Z</time>
      </trkpt>
      <trkpt lat="49.248027" lon="7.111663">
        <ele>322.106395</ele>
        <time>2024-03-03T10:53:14.999Z</time>
      </trkpt>
      <trkpt lat="49.248116" lon="7.111640">
        <ele>321.594959</ele>
        <time>2024-03-03T10:53:20.999Z</time>
      </trkpt>
      <trkpt lat="49.248143" lon="7.111492">
        <ele>321.026539</ele>
        <time>2024-03-03T10:53:31.999Z</time>
      </trkpt>
      <trkpt lat="49.248182" lon="7.111360">
        <ele>320.490597</ele>
        <time>2024-03-03T10:53:38.999Z</time>
      </trkpt>
      <trkpt lat="49.248138" lon="7.111179">
        <ele>319.762417</ele>
        <time>2024-03-03T10:53:46.999Z</time>
      </trkpt>
      <trkpt lat="49.248048" lon="7.111043">
        <ele>318.901359</ele>
        <time>2024-03-03T10:53:55.999Z</time>
      </trkpt>
      <trkpt lat="49.247978" lon="7.110948">
        <ele>318.264385</ele>
        <time>2024-03-03T10:54:00.999Z</time>
      </trkpt>
      <trkpt lat="49.247994" lon="7.110793">
        <ele>317.566655</ele>
        <time>2024-03-03T10:54:10.999Z</time>
      </trkpt>
      <trkpt lat="49.247907" lon="7.110668">
        <ele>316.754232</ele>
        <time>2024-03-03T10:54:17.999Z</time>
      </trkpt>
      <trkpt lat="49.247849" lon="7.110551">
        <ele>316.101023</ele>
        <time>2024-03-03T10:54:28.999Z</time>
      </trkpt>
      <trkpt lat="49.247769" lon="7.110452">
        <ele>315.400547</ele>
        <time>2024-03-03T10:54:37.999Z</time>
      </trkpt>
      <trkpt lat="49.247711" lon="7.110338">
        <ele>314.757909</ele>
        <time>2024-03-03T10:54:54.998Z</time>
      </trkpt>
      <trkpt lat="49.247627" lon="7.110264">
        <ele>314.097911</ele>
        <time>2024-03-03T10:55:40.999Z</time>
      </trkpt>
      <trkpt lat="49.247546" lon="7.110177">
        <ele>313.424107</ele>
        <time>2024-03-03T10:55:52.999Z</time>
      </trkpt>
      <trkpt lat="49.247484" lon="7.110072">
        <ele>312.794592</ele>
        <time>2024-03-03T10:55:57.999Z</time>
      </trkpt>
      <trkpt lat="49.247397" lon="7.110003">
        <ele>312.127312</ele>
        <time>2024-03-03T10:56:06.999Z</time>
      </trkpt>
      <trkpt lat="49.247362" lon="7.109872">
        <ele>311.497951</ele>
        <time>2024-03-03T10:56:12.999Z</time>
      </trkpt>
      <trkpt lat="49.247310" lon="7.109754">
        <ele>310.864931</ele>
        <time>2024-03-03T10:56:18.999Z</time>
      </trkpt>
      <trkpt lat="49.247257" lon="7.109634">
        <ele>310.220728</ele>
        <time>2024-03-03T10:56:25.999Z</time>
      </trkpt>
      <trkpt lat="49.247212" lon="7.109481">
        <ele>309.474584</ele>
        <time>2024-03-03T10:56:38.999Z</time>
      </trkpt>
      <trkpt lat="49.247134" lon="7.109382">
        <ele>308.784649</ele>
        <time>2024-03-03T10:56:47.999Z</time>
      </trkpt>
      <trkpt lat="49.247088" lon="7.109259">
        <ele>308.154362</ele>
        <time>2024-03-03T10:56:57.998Z</time>
      </trkpt>
      <trkpt lat="49.247016" lon="7.109142">
        <ele>307.457747</ele>
        <time>2024-03-03T10:57:04.998Z</time>
      </trkpt>
      <trkpt lat="49.246939" lon="7.109047">
        <ele>306.864441</ele>
        <time>2024-03-03T10:57:12.999Z</time>
      </trkpt>
      <trkpt lat="49.246840" lon="7.109019">
        <ele>306.260304</ele>
        <time>2024-03-03T10:57:20.999Z</time>
      </trkpt>
      <trkpt lat="49.246740" lon="7.108982">
        <ele>305.642951</ele>
        <time>2024-03-03T10:57:35.999Z</time>
      </trkpt>
      <trkpt lat="49.246646" lon="7.109044">
        <ele>305.028792</ele>
        <time>2024-03-03T10:57:49.999Z</time>
      </trkpt>
      <trkpt lat="49.246550" lon="7.109071">
        <ele>304.443070</ele>
        <time>2024-03-03T10:57:56.999Z</time>
      </trkpt>
      <trkpt lat="49.246443" lon="7.109035">
        <ele>303.785662</ele>
        <time>2024-03-03T10:58:04.999Z</time>
      </trkpt>
      <trkpt lat="49.246365" lon="7.109129">
        <ele>303.190097</ele>
        <time>2024-03-03T10:58:14.999Z</time>
      </trkpt>
      <trkpt lat="49.246268" lon="7.109189">
        <ele>302.562338</ele>
        <time>2024-03-03T10:58:24.999Z</time>
      </trkpt>
      <trkpt lat="49.246163" lon="7.109189">
        <ele>301.932237</ele>
        <time>2024-03-03T10:58:31.999Z</time>
      </trkpt>
      <trkpt lat="49.246047" lon="7.109165">
        <ele>301.229804</ele>
        <time>2024-03-03T10:58:36.999Z</time>
      </trkpt>
      <trkpt lat="49.245965" lon="7.109233">
        <ele>300.670245</ele>
        <time>2024-03-03T10:58:44.999Z</time>
      </trkpt>
      <trkpt lat="49.245927" lon="7.109361">
        <ele>300.119387</ele>
        <time>2024-03-03T10:58:51.999Z</time>
      </trkpt>
      <trkpt lat="49.245842" lon="7.109415">
        <ele>299.567178</ele>
        <time>2024-03-03T10:58:59.999Z</time>
      </trkpt>
      <trkpt lat="49.245757" lon="7.109496">
        <ele>298.966449</ele>
        <time>2024-03-03T10:59:08.999Z</time>
      </trkpt>
      <trkpt lat="49.245679" lon="7.109568">
        <ele>298.419957</ele>
        <time>2024-03-03T10:59:16.000Z</time>
      </trkpt>
      <trkpt lat="49.245601" lon="7.109654">
        <ele>297.843240</ele>
        <time>2024-03-03T10:59:23.000Z</time>
      </trkpt>
      <trkpt lat="49.245508" lon="7.109680">
        <ele>297.275932</ele>
        <time>2024-03-03T10:59:31.999Z</time>
      </trkpt>
      <trkpt lat="49.245425" lon="7.109762">
        <ele>296.655373</ele>
        <time>2024-03-03T10:59:41.999Z</time>
      </trkpt>
      <trkpt lat="49.245322" lon="7.109782">
        <ele>295.883347</ele>
        <time>2024-03-03T10:59:45.999Z</time>
      </trkpt>
      <trkpt lat="49.245230" lon="7.109786">
        <ele>295.198970</ele>
        <time>2024-03-03T10:59:50.999Z</time>
      </trkpt>
      <trkpt lat="49.245127" lon="7.109807">
        <ele>294.426319</ele>
        <time>2024-03-03T10:59:58.999Z</time>
      </trkpt>
      <trkpt lat="49.245047" lon="7.109902">
        <ele>293.673629</ele>
        <time>2024-03-03T11:00:07.999Z</time>
      </trkpt>
      <trkpt lat="49.244964" lon="7.109957">
        <ele>293.001176</ele>
        <time>2024-03-03T11:00:13.999Z</time>
      </trkpt>
      <trkpt lat="49.244879" lon="7.110016">
        <ele>292.307261</ele>
        <time>2024-03-03T11:00:20.999Z</time>
      </trkpt>
      <trkpt lat="49.244820" lon="7.110151">
        <ele>291.518629</ele>
        <time>2024-03-03T11:00:28.999Z</time>
      </trkpt>
      <trkpt lat="49.244720" lon="7.110194">
        <ele>290.746297</ele>
        <time>2024-03-03T11:00:37.999Z</time>
      </trkpt>
      <trkpt lat="49.244646" lon="7.110288">
        <ele>290.031453</ele>
        <time>2024-03-03T11:00:45.999Z</time>
      </trkpt>
      <trkpt lat="49.244566" lon="7.110379">
        <ele>289.290499</ele>
        <time>2024-03-03T11:00:50.999Z</time>
      </trkpt>
      <trkpt lat="49.244484" lon="7.110453">
        <ele>288.582806</ele>
        <time>2024-03-03T11:00:56.999Z</time>
      </trkpt>
      <trkpt lat="49.244433" lon="7.110570">
        <ele>287.899872</ele>
        <time>2024-03-03T11:01:05.999Z</time>
      </trkpt>
      <trkpt lat="49.244387" lon="7.110694">
        <ele>287.207530</ele>
        <time>2024-03-03T11:01:12.998Z</time>
      </trkpt>
      <trkpt lat="49.244310" lon="7.110796">
        <ele>286.450561</ele>
        <time>2024-03-03T11:01:20.999Z</time>
      </trkpt>
      <trkpt lat="49.244261" lon="7.110917">
        <ele>285.759346</ele>
        <time>2024-03-03T11:01:30.000Z</time>
      </trkpt>
      <trkpt lat="49.244165" lon="7.111006">
        <ele>284.924938</ele>
        <time>2024-03-03T11:01:37.000Z</time>
      </trkpt>
      <trkpt lat="49.244107" lon="7.111130">
        <ele>284.184434</ele>
        <time>2024-03-03T11:01:44.000Z</time>
      </trkpt>
      <trkpt lat="49.244013" lon="7.111194">
        <ele>283.422672</ele>
        <time>2024-03-03T11:01:51.000Z</time>
      </trkpt>
      <trkpt lat="49.243932" lon="7.111294">
        <ele>283.071589</ele>
        <time>2024-03-03T11:01:59.999Z</time>
      </trkpt>
      <trkpt lat="49.243856" lon="7.111378">
        <ele>282.755314</ele>
        <time>2024-03-03T11:02:08.999Z</time>
      </trkpt>
      <trkpt lat="49.243778" lon="7.111468">
        <ele>282.425761</ele>
        <time>2024-03-03T11:02:18.999Z</time>
      </trkpt>
      <trkpt lat="49.243691" lon="7.111559">
        <ele>282.070240</ele>
        <time>2024-03-03T11:02:25.999Z</time>
      </trkpt>
      <trkpt lat="49.243613" lon="7.111648">
        <ele>281.742008</ele>
        <time>2024-03-03T11:02:33.999Z</time>
      </trkpt>
      <trkpt lat="49.243508" lon="7.111695">
        <ele>281.372843</ele>
        <time>2024-03-03T11:02:40.999Z</time>
      </trkpt>
      <trkpt lat="49.243438" lon="7.111799">
        <ele>281.043747</ele>
        <time>2024-03-03T11:02:49.999Z</time>
      </trkpt>
      <trkpt lat="49.243381" lon="7.111926">
        <ele>280.704202</ele>
        <time>2024-03-03T11:02:56.999Z</time>
      </trkpt>
      <trkpt lat="49.243335" lon="7.112047">
        <ele>280.395713</ele>
        <time>2024-03-03T11:03:05.999Z</time>
      </trkpt>
      <trkpt lat="49.243255" lon="7.112111">
        <ele>280.091133</ele>
        <time>2024-03-03T11:03:11.999Z</time>
      </trkpt>
      <trkpt lat="49.243150" lon="7.112154">
        <ele>279.724343</ele>
        <time>2024-03-03T11:03:18.999Z</time>
      </trkpt>
      <trkpt lat="49.243093" lon="7.112267">
        <ele>279.409728</ele>
        <time>2024-03-03T11:03:29.000Z</time>
      </trkpt>
      <trkpt lat="49.243043" lon="7.112401">
        <ele>279.069683</ele>
        <time>2024-03-03T11:03:35.000Z</time>
      </trkpt>
      <trkpt lat="49.242973" lon="7.112493">
        <ele>278.758413</ele>
        <time>2024-03-03T11:03:42.000Z</time>
      </trkpt>
      <trkpt lat="49.242885" lon="7.112522">
        <ele>278.454644</ele>
        <time>2024-03-03T11:03:50.000Z</time>
      </trkpt>
      <trkpt lat="49.242815" lon="7.112630">
        <ele>278.119350</ele>
        <time>2024-03-03T11:03:57.000Z</time>
      </trkpt>
      <trkpt lat="49.242729" lon="7.112681">
        <ele>277.808133</ele>
        <time>2024-03-03T11:04:04.000Z</time>
      </trkpt>
      <trkpt lat="49.242658" lon="7.112779">
        <ele>277.485598</ele>
        <time>2024-03-03T11:04:11.000Z</time>
      </trkpt>
      <trkpt lat="49.242582" lon="7.112859">
        <ele>277.178618</ele>
        <time>2024-03-03T11:04:17.000Z</time>
      </trkpt>
      <trkpt lat="49.242516" lon="7.112954">
        <ele>276.880105</ele>
        <time>2024-03-03T11:04:23.999Z</time>
      </trkpt>
      <trkpt lat="49.242434" lon="7.113012">
        <ele>276.582410</ele>
        <time>2024-03-03T11:04:29.999Z</time>
      </trkpt>
      <trkpt lat="49.242381" lon="7.113135">
        <ele>276.265287</ele>
        <time>2024-03-03T11:04:38.999Z</time>
      </trkpt>
      <trkpt lat="49.242304" lon="7.113228">
        <ele>275.942088</ele>
        <time>2024-03-03T11:04:47.999Z</time>
      </trkpt>
      <trkpt lat="49.242229" lon="7.113357">
        <ele>275.570389</ele>
        <time>2024-03-03T11:04:56.999Z</time>
      </trkpt>
      <trkpt lat="49.242163" lon="7.113455">
        <ele>275.267418</ele>
        <time>2024-03-03T11:05:04.999Z</time>
      </trkpt>
      <trkpt lat="49.242085" lon="7.113550">
        <ele>274.938964</ele>
        <time>2024-03-03T11:05:11.999Z</time>
      </trkpt>
      <trkpt lat="49.242026" lon="7.113681">
        <ele>274.596505</ele>
        <time>2024-03-03T11:05:19.999Z</time>
      </trkpt>
      <trkpt lat="49.241975" lon="7.113805">
        <ele>274.281144</ele>
        <time>2024-03-03T11:05:27.999Z</time>
      </trkpt>
      <trkpt lat="49.241937" lon="7.113932">
        <ele>273.980528</ele>
        <time>2024-03-03T11:05:36.000Z</time>
      </trkpt>
      <trkpt lat="49.241842" lon="7.114010">
        <ele>273.625261</ele>
        <time>2024-03-03T11:05:43.000Z</time>
      </trkpt>
      <trkpt lat="49.241762" lon="7.114096">
        <ele>273.303123</ele>
        <time>2024-03-03T11:05:50.000Z</time>
      </trkpt>
      <trkpt lat="49.241689" lon="7.114214">
        <ele>272.953315</ele>
        <time>2024-03-03T11:05:59.000Z</time>
      </trkpt>
      <trkpt lat="49.241640" lon="7.114350">
        <ele>272.619058</ele>
        <time>2024-03-03T11:06:05.000Z</time>
      </trkpt>
      <trkpt lat="49.241654" lon="7.114486">
        <ele>272.322791</ele>
        <time>2024-03-03T11:06:11.000Z</time>
      </trkpt>
      <trkpt lat="49.241602" lon="7.114623">
        <ele>271.981787</ele>
        <time>2024-03-03T11:06:20.000Z</time>
      </trkpt>
      <trkpt lat="49.241532" lon="7.114718">
        <ele>271.673532</ele>
        <time>2024-03-03T11:06:26.000Z</time>
      </trkpt>
      <trkpt lat="49.241462" lon="7.114823">
        <ele>271.395270</ele>
        <time>2024-03-03T11:06:33.999Z</time>
      </trkpt>
      <trkpt lat="49.241440" lon="7.114981">
        <ele>271.250613</ele>
        <time>2024-03-03T11:06:40.999Z</time>
      </trkpt>
      <trkpt lat="49.241396" lon="7.115115">
        <ele>271.116307</ele>
        <time>2024-03-03T11:06:48.999Z</time>
      </trkpt>
      <trkpt lat="49.241296" lon="7.115202">
        <ele>270.958578</ele>
        <time>2024-03-03T11:06:57.999Z</time>
      </trkpt>
      <trkpt lat="49.241250" lon="7.115340">
        <ele>270.819837</ele>
        <time>2024-03-03T11:07:06.999Z</time>
      </trkpt>
      <trkpt lat="49.241173" lon="7.115423">
        <ele>270.690703</ele>
        <time>2024-03-03T11:07:12.999Z</time>
      </trkpt>
      <trkpt lat="49.241189" lon="7.115580">
        <ele>270.548420</ele>
        <time>2024-03-03T11:07:19.999Z</time>
      </trkpt>
      <trkpt lat="49.241209" lon="7.115729">
        <ele>270.412212</ele>
        <time>2024-03-03T11:07:28.999Z</time>
      </trkpt>
      <trkpt lat="49.241247" lon="7.115870">
        <ele>270.275625</ele>
        <time>2024-03-03T11:07:39.000Z</time>
      </trkpt>
      <trkpt lat="49.241297" lon="7.116003">
        <ele>270.138203</ele>
        <time>2024-03-03T11:07:47.000Z</time>
      </trkpt>
      <trkpt lat="49.241337" lon="7.116132">
        <ele>270.010329</ele>
        <time>2024-03-03T11:07:56.000Z</time>
      </trkpt>
      <trkpt lat="49.241425" lon="7.116175">
        <ele>269.883644</ele>
        <time>2024-03-03T11:08:02.000Z</time>
      </trkpt>
      <trkpt lat="49.241514" lon="7.116202">
        <ele>269.759210</ele>
        <time>2024-03-03T11:08:14.999Z</time>
      </trkpt>
      <trkpt lat="49.241411" lon="7.116231">
        <ele>269.615580</ele>
        <time>2024-03-03T11:08:36.999Z</time>
      </trkpt>
      <trkpt lat="49.241315" lon="7.116234">
        <ele>269.483889</ele>
        <time>2024-03-03T11:08:46.999Z</time>
      </trkpt>
      <trkpt lat="49.241225" lon="7.116212">
        <ele>269.358893</ele>
        <time>2024-03-03T11:09:07.998Z</time>
      </trkpt>
      <trkpt lat="49.241125" lon="7.116255">
        <ele>269.216441</ele>
        <time>2024-03-03T11:09:13.998Z</time>
      </trkpt>
      <trkpt lat="49.241061" lon="7.116356">
        <ele>269.090412</ele>
        <time>2024-03-03T11:09:23.998Z</time>
      </trkpt>
      <trkpt lat="49.240977" lon="7.116420">
        <ele>268.961740</ele>
        <time>2024-03-03T11:09:28.998Z</time>
      </trkpt>
      <trkpt lat="49.240877" lon="7.116477">
        <ele>268.849882</ele>
        <time>2024-03-03T11:09:37.998Z</time>
      </trkpt>
      <trkpt lat="49.240788" lon="7.116547">
        <ele>268.745326</ele>
        <time>2024-03-03T11:09:45.999Z</time>
      </trkpt>
      <trkpt lat="49.240706" lon="7.116628">
        <ele>268.643354</ele>
        <time>2024-03-03T11:09:56.999Z</time>
      </trkpt>
      <trkpt lat="49.240616" lon="7.116639">
        <ele>268.549000</ele>
        <time>2024-03-03T11:10:02.999Z</time>
      </trkpt>
      <trkpt lat="49.240525" lon="7.116675">
        <ele>268.450778</ele>
        <time>2024-03-03T11:10:09.999Z</time>
      </trkpt>
      <trkpt lat="49.240432" lon="7.116680">
        <ele>268.353527</ele>
        <time>2024-03-03T11:10:16.999Z</time>
      </trkpt>
      <trkpt lat="49.240345" lon="7.116723">
        <ele>268.257990</ele>
        <time>2024-03-03T11:10:23.999Z</time>
      </trkpt>
      <trkpt lat="49.240253" lon="7.116770">
        <ele>268.156637</ele>
        <time>2024-03-03T11:10:31.999Z</time>
      </trkpt>
      <trkpt lat="49.240149" lon="7.116812">
        <ele>268.044236</ele>
        <time>2024-03-03T11:10:40.999Z</time>
      </trkpt>
      <trkpt lat="49.240056" lon="7.116848">
        <ele>267.943989</ele>
        <time>2024-03-03T11:10:49.999Z</time>
      </trkpt>
      <trkpt lat="49.239966" lon="7.116841">
        <ele>267.849812</ele>
        <time>2024-03-03T11:10:55.999Z</time>
      </trkpt>
      <trkpt lat="49.239863" lon="7.116840">
        <ele>267.742168</ele>
        <time>2024-03-03T11:11:04.999Z</time>
      </trkpt>
      <trkpt lat="49.239750" lon="7.116916">
        <ele>267.613192</ele>
        <time>2024-03-03T11:11:13.999Z</time>
      </trkpt>
      <trkpt lat="49.239650" lon="7.116966">
        <ele>267.503258</ele>
        <time>2024-03-03T11:11:22.998Z</time>
      </trkpt>
      <trkpt lat="49.239553" lon="7.116995">
        <ele>267.399973</ele>
        <time>2024-03-03T11:11:31.998Z</time>
      </trkpt>
      <trkpt lat="49.239461" lon="7.116992">
        <ele>267.303805</ele>
        <time>2024-03-03T11:11:37.998Z</time>
      </trkpt>
      <trkpt lat="49.239370" lon="7.117045">
        <ele>267.202061</ele>
        <time>2024-03-03T11:11:45.998Z</time>
      </trkpt>
      <trkpt lat="49.239279" lon="7.117082">
        <ele>267.103666</ele>
        <time>2024-03-03T11:11:51.999Z</time>
      </trkpt>
      <trkpt lat="49.239189" lon="7.117090">
        <ele>266.929655</ele>
        <time>2024-03-03T11:12:03.999Z</time>
      </trkpt>
      <trkpt lat="49.239090" lon="7.117111">
        <ele>266.708019</ele>
        <time>2024-03-03T11:12:09.999Z</time>
      </trkpt>
      <trkpt lat="49.238997" lon="7.117123">
        <ele>266.501053</ele>
        <time>2024-03-03T11:12:19.999Z</time>
      </trkpt>
      <trkpt lat="49.238905" lon="7.117140">
        <ele>266.295555</ele>
        <time>2024-03-03T11:12:25.999Z</time>
      </trkpt>
      <trkpt lat="49.238817" lon="7.117165">
        <ele>266.097079</ele>
        <time>2024-03-03T11:12:33.999Z</time>
      </trkpt>
      <trkpt lat="49.238721" lon="7.117204">
        <ele>265.876829</ele>
        <time>2024-03-03T11:12:40.999Z</time>
      </trkpt>
      <trkpt lat="49.238639" lon="7.117285">
        <ele>265.660448</ele>
        <time>2024-03-03T11:12:49.999Z</time>
      </trkpt>
      <trkpt lat="49.238552" lon="7.117328">
        <ele>265.457721</ele>
        <time>2024-03-03T11:12:57.999Z</time>
      </trkpt>
      <trkpt lat="49.238451" lon="7.117396">
        <ele>265.213060</ele>
        <time>2024-03-03T11:13:06.999Z</time>
      </trkpt>
      <trkpt lat="49.238473" lon="7.117534">
        <ele>265.007381</ele>
        <time>2024-03-03T11:13:18.999Z</time>
      </trkpt>
      <trkpt lat="49.238414" lon="7.117416">
        <ele>264.792187</ele>
        <time>2024-03-03T11:13:39.999Z</time>
      </trkpt>
      <trkpt lat="49.238326" lon="7.117391">
        <ele>264.593710</ele>
        <time>2024-03-03T11:14:00.999Z</time>
      </trkpt>
      <trkpt lat="49.238242" lon="7.117335">
        <ele>264.390551</ele>
        <time>2024-03-03T11:14:06.999Z</time>
      </trkpt>
      <trkpt lat="49.238150" lon="7.117301">
        <ele>264.180678</ele>
        <time>2024-03-03T11:14:12.999Z</time>
      </trkpt>
      <trkpt lat="49.238071" lon="7.117223">
        <ele>263.972241</ele>
        <time>2024-03-03T11:14:21.999Z</time>
      </trkpt>
      <trkpt lat="49.237985" lon="7.117167">
        <ele>263.765008</ele>
        <time>2024-03-03T11:14:29.999Z</time>
      </trkpt>
      <trkpt lat="49.237927" lon="7.117059">
        <ele>263.562534</ele>
        <time>2024-03-03T11:14:39.999Z</time>
      </trkpt>
      <trkpt lat="49.237843" lon="7.116957">
        <ele>263.324814</ele>
        <time>2024-03-03T11:14:45.999Z</time>
      </trkpt>
      <trkpt lat="49.237786" lon="7.117077">
        <ele>263.109951</ele>
        <time>2024-03-03T11:15:02.999Z</time>
      </trkpt>
      <trkpt lat="49.237701" lon="7.117018">
        <ele>263.291200</ele>
        <time>2024-03-03T11:15:20.999Z</time>
      </trkpt>
      <trkpt lat="49.237607" lon="7.116987">
        <ele>263.516112</ele>
        <time>2024-03-03T11:15:27.999Z</time>
      </trkpt>
      <trkpt lat="49.237513" lon="7.116987">
        <ele>263.735985</ele>
        <time>2024-03-03T11:15:36.999Z</time>
      </trkpt>
      <trkpt lat="49.237425" lon="7.116957">
        <ele>263.946861</ele>
        <time>2024-03-03T11:15:43.999Z</time>
      </trkpt>
      <trkpt lat="49.237331" lon="7.116905">
        <ele>264.180636</ele>
        <time>2024-03-03T11:15:50.999Z</time>
      </trkpt>
      <trkpt lat="49.237233" lon="7.116972">
        <ele>264.431667</ele>
        <time>2024-03-03T11:16:02.000Z</time>
      </trkpt>
      <trkpt lat="49.237143" lon="7.116922">
        <ele>264.655605</ele>
        <time>2024-03-03T11:16:10.000Z</time>
      </trkpt>
      <trkpt lat="49.237090" lon="7.116790">
        <ele>264.892270</ele>
        <time>2024-03-03T11:16:22.000Z</time>
      </trkpt>
      <trkpt lat="49.237012" lon="7.116691">
        <ele>265.129225</ele>
        <time>2024-03-03T11:16:30.999Z</time>
      </trkpt>
      <trkpt lat="49.237090" lon="7.116785">
        <ele>265.361383</ele>
        <time>2024-03-03T11:16:57.999Z</time>
      </trkpt>
      <trkpt lat="49.236997" lon="7.116744">
        <ele>265.587749</ele>
        <time>2024-03-03T11:17:09.999Z</time>
      </trkpt>
      <trkpt lat="49.236903" lon="7.116681">
        <ele>265.827753</ele>
        <time>2024-03-03T11:17:17.999Z</time>
      </trkpt>
      <trkpt lat="49.236814" lon="7.116618">
        <ele>266.057090</ele>
        <time>2024-03-03T11:17:26.999Z</time>
      </trkpt>
      <trkpt lat="49.236726" lon="7.116573">
        <ele>266.274099</ele>
        <time>2024-03-03T11:17:32.999Z</time>
      </trkpt>
      <trkpt lat="49.236633" lon="7.116631">
        <ele>266.508977</ele>
        <time>2024-03-03T11:17:41.999Z</time>
      </trkpt>
      <trkpt lat="49.236546" lon="7.116569">
        <ele>266.733427</ele>
        <time>2024-03-03T11:17:47.999Z</time>
      </trkpt>
      <trkpt lat="49.236445" lon="7.116538">
        <ele>266.974371</ele>
        <time>2024-03-03T11:17:59.999Z</time>
      </trkpt>
      <trkpt lat="49.236339" lon="7.116492">
        <ele>267.232074</ele>
        <time>2024-03-03T11:18:09.000Z</time>
      </trkpt>
      <trkpt lat="49.236249" lon="7.116417">
        <ele>266.920411</ele>
        <time>2024-03-03T11:18:17.000Z</time>
      </trkpt>
      <trkpt lat="49.236156" lon="7.116318">
        <ele>266.339386</ele>
        <time>2024-03-03T11:18:26.000Z</time>
      </trkpt>
      <trkpt lat="49.236075" lon="7.116251">
        <ele>265.867117</ele>
        <time>2024-03-03T11:18:34.000Z</time>
      </trkpt>
      <trkpt lat="49.236002" lon="7.116163">
        <ele>265.390529</ele>
        <time>2024-03-03T11:18:43.999Z</time>
      </trkpt>
      <trkpt lat="49.235925" lon="7.116083">
        <ele>264.913196</ele>
        <time>2024-03-03T11:18:49.999Z</time>
      </trkpt>
      <trkpt lat="49.235849" lon="7.115986">
        <ele>264.405670</ele>
        <time>2024-03-03T11:18:57.999Z</time>
      </trkpt>
      <trkpt lat="49.235764" lon="7.115911">
        <ele>263.902422</ele>
        <time>2024-03-03T11:19:06.999Z</time>
      </trkpt>
      <trkpt lat="49.235693" lon="7.115818">
        <ele>263.423139</ele>
        <time>2024-03-03T11:19:14.999Z</time>
      </trkpt>
      <trkpt lat="49.235741" lon="7.115690">
        <ele>262.928700</ele>
        <time>2024-03-03T11:19:35.999Z</time>
      </trkpt>
      <trkpt lat="49.235733" lon="7.115538">
        <ele>262.417898</ele>
        <time>2024-03-03T11:19:43.999Z</time>
      </trkpt>
      <trkpt lat="49.235755" lon="7.115387">
        <ele>261.899658</ele>
        <time>2024-03-03T11:19:53.999Z</time>
      </trkpt>
      <trkpt lat="49.235737" lon="7.115231">
        <ele>261.369012</ele>
        <time>2024-03-03T11:20:03.999Z</time>
      </trkpt>
      <trkpt lat="49.235688" lon="7.115115">
        <ele>260.906228</ele>
        <time>2024-03-03T11:20:12.999Z</time>
      </trkpt>
      <trkpt lat="49.235605" lon="7.115015">
        <ele>260.364466</ele>
        <time>2024-03-03T11:20:22.000Z</time>
      </trkpt>
      <trkpt lat="49.235536" lon="7.114911">
        <ele>259.867819</ele>
        <time>2024-03-03T11:20:34.000Z</time>
      </trkpt>
      <trkpt lat="49.235456" lon="7.114814">
        <ele>259.344362</ele>
        <time>2024-03-03T11:20:44.000Z</time>
      </trkpt>
      <trkpt lat="49.235422" lon="7.114657">
        <ele>258.790290</ele>
        <time>2024-03-03T11:20:53.000Z</time>
      </trkpt>
      <trkpt lat="49.235397" lon="7.114523">
        <ele>258.323467</ele>
        <time>2024-03-03T11:21:00.000Z</time>
      </trkpt>
      <trkpt lat="49.235310" lon="7.114426">
        <ele>258.096555</ele>
        <time>2024-03-03T11:21:07.000Z</time>
      </trkpt>
      <trkpt lat="49.235277" lon="7.114298">
        <ele>258.134373</ele>
        <time>2024-03-03T11:21:13.999Z</time>
      </trkpt>
      <trkpt lat="49.235224" lon="7.114161">
        <ele>258.178134</ele>
        <time>2024-03-03T11:21:21.999Z</time>
      </trkpt>
      <trkpt lat="49.235187" lon="7.114026">
        <ele>258.218369</ele>
        <time>2024-03-03T11:21:29.999Z</time>
      </trkpt>
      <trkpt lat="49.235144" lon="7.113886">
        <ele>258.260886</ele>
        <time>2024-03-03T11:21:38.999Z</time>
      </trkpt>
      <trkpt lat="49.235126" lon="7.113746">
        <ele>258.300099</ele>
        <time>2024-03-03T11:21:46.999Z</time>
      </trkpt>
      <trkpt lat="49.235102" lon="7.113610">
        <ele>258.338814</ele>
        <time>2024-03-03T11:21:55.999Z</time>
      </trkpt>
      <trkpt lat="49.235139" lon="7.113458">
        <ele>258.383393</ele>
        <time>2024-03-03T11:22:07.999Z</time>
      </trkpt>
      <trkpt lat="49.235207" lon="7.113343">
        <ele>258.426029</ele>
        <time>2024-03-03T11:22:31.000Z</time>
      </trkpt>
      <trkpt lat="49.235298" lon="7.113416">
        <ele>258.469265</ele>
        <time>2024-03-03T11:22:47.000Z</time>
      </trkpt>
      <trkpt lat="49.235318" lon="7.113268">
        <ele>258.510798</ele>
        <time>2024-03-03T11:22:59.000Z</time>
      </trkpt>
      <trkpt lat="49.235327" lon="7.113117">
        <ele>258.552467</ele>
        <time>2024-03-03T11:23:07.000Z</time>
      </trkpt>
      <trkpt lat="49.235353" lon="7.112979">
        <ele>258.591938</ele>
        <time>2024-03-03T11:23:19.000Z</time>
      </trkpt>
      <trkpt lat="49.235391" lon="7.112853">
        <ele>258.630079</ele>
        <time>2024-03-03T11:23:26.000Z</time>
      </trkpt>
      <trkpt lat="49.235480" lon="7.112777">
        <ele>258.672966</ele>
        <time>2024-03-03T11:23:35.999Z</time>
      </trkpt>
      <trkpt lat="49.235491" lon="7.112636">
        <ele>258.711989</ele>
        <time>2024-03-03T11:23:44.999Z</time>
      </trkpt>
      <trkpt lat="49.235532" lon="7.112473">
        <ele>258.759992</ele>
        <time>2024-03-03T11:23:54.999Z</time>
      </trkpt>
      <trkpt lat="49.235606" lon="7.112358">
        <ele>258.804362</ele>
        <time>2024-03-03T11:24:01.999Z</time>
      </trkpt>
      <trkpt lat="49.235662" lon="7.112245">
        <ele>258.891106</ele>
        <time>2024-03-03T11:24:11.999Z</time>
      </trkpt>
      <trkpt lat="49.235752" lon="7.112230">
        <ele>259.055165</ele>
        <time>2024-03-03T11:24:16.999Z</time>
      </trkpt>
      <trkpt lat="49.235851" lon="7.112319">
        <ele>259.263195</ele>
        <time>2024-03-03T11:24:25.000Z</time>
      </trkpt>
      <trkpt lat="49.235941" lon="7.112274">
        <ele>259.434764</ele>
        <time>2024-03-03T11:24:34.000Z</time>
      </trkpt>
      <trkpt lat="49.236041" lon="7.112222">
        <ele>259.626143</ele>
        <time>2024-03-03T11:24:41.000Z</time>
      </trkpt>
      <trkpt lat="49.236131" lon="7.112208">
        <ele>259.790078</ele>
        <time>2024-03-03T11:24:46.000Z</time>
      </trkpt>
      <trkpt lat="49.236168" lon="7.112064">
        <ele>259.973184</ele>
        <time>2024-03-03T11:24:56.000Z</time>
      </trkpt>
      <trkpt lat="49.236241" lon="7.111954">
        <ele>260.158768</ele>
        <time>2024-03-03T11:25:04.000Z</time>
      </trkpt>
      <trkpt lat="49.236340" lon="7.111850">
        <ele>260.376322</ele>
        <time>2024-03-03T11:25:13.000Z</time>
      </trkpt>
      <trkpt lat="49.236416" lon="7.111748">
        <ele>260.559447</ele>
        <time>2024-03-03T11:25:24.000Z</time>
      </trkpt>
      <trkpt lat="49.236473" lon="7.111624">
        <ele>260.738883</ele>
        <time>2024-03-03T11:25:30.000Z</time>
      </trkpt>
      <trkpt lat="49.236546" lon="7.111528">
        <ele>260.913249</ele>
        <time>2024-03-03T11:25:37.000Z</time>
      </trkpt>
      <trkpt lat="49.236604" lon="7.111410">
        <ele>261.088011</ele>
        <time>2024-03-03T11:25:44.000Z</time>
      </trkpt>
      <trkpt lat="49.236576" lon="7.111256">
        <ele>261.277163</ele>
        <time>2024-03-03T11:25:51.999Z</time>
      </trkpt>
      <trkpt lat="49.236615" lon="7.111131">
        <ele>261.441086</ele>
        <time>2024-03-03T11:25:58.999Z</time>
      </trkpt>
      <trkpt lat="49.236594" lon="7.110976">
        <ele>261.628395</ele>
        <time>2024-03-03T11:26:07.999Z</time>
      </trkpt>
      <trkpt lat="49.236595" lon="7.110833">
        <ele>261.797608</ele>
        <time>2024-03-03T11:26:14.999Z</time>
      </trkpt>
      <trkpt lat="49.236632" lon="7.110691">
        <ele>261.978513</ele>
        <time>2024-03-03T11:26:24.998Z</time>
      </trkpt>
      <trkpt lat="49.236669" lon="7.110557">
        <ele>262.247450</ele>
        <time>2024-03-03T11:26:43.999Z</time>
      </trkpt>
      <trkpt lat="49.236644" lon="7.110420">
        <ele>262.677288</ele>
        <time>2024-03-03T11:26:50.999Z</time>
      </trkpt>
      <trkpt lat="49.236733" lon="7.110361">
        <ele>263.126097</ele>
        <time>2024-03-03T11:26:55.999Z</time>
      </trkpt>
      <trkpt lat="49.236752" lon="7.110223">
        <ele>263.552262</ele>
        <time>2024-03-03T11:27:06.999Z</time>
      </trkpt>
      <trkpt lat="49.236793" lon="7.110098">
        <ele>263.974954</ele>
        <time>2024-03-03T11:27:17.999Z</time>
      </trkpt>
      <trkpt lat="49.236773" lon="7.109952">
        <ele>264.425727</ele>
        <time>2024-03-03T11:27:25.999Z</time>
      </trkpt>
      <trkpt lat="49.236847" lon="7.109850">
        <ele>264.886461</ele>
        <time>2024-03-03T11:27:31.999Z</time>
      </trkpt>
      <trkpt lat="49.236886" lon="7.109725">
        <ele>265.305080</ele>
        <time>2024-03-03T11:27:38.999Z</time>
      </trkpt>
      <trkpt lat="49.236930" lon="7.109599">
        <ele>265.736846</ele>
        <time>2024-03-03T11:27:47.999Z</time>
      </trkpt>
      <trkpt lat="49.236878" lon="7.109479">
        <ele>266.172039</ele>
        <time>2024-03-03T11:27:53.999Z</time>
      </trkpt>
      <trkpt lat="49.236920" lon="7.109344">
        <ele>266.623908</ele>
        <time>2024-03-03T11:28:06.998Z</time>
      </trkpt>
      <trkpt lat="49.236951" lon="7.109178">
        <ele>267.145621</ele>
        <time>2024-03-03T11:28:12.998Z</time>
      </trkpt>
      <trkpt lat="49.237060" lon="7.109163">
        <ele>267.652092</ele>
        <time>2024-03-03T11:28:15.998Z</time>
      </trkpt>
      <trkpt lat="49.237121" lon="7.109050">
        <ele>268.095129</ele>
        <time>2024-03-03T11:28:22.998Z</time>
      </trkpt>
      <trkpt lat="49.237117" lon="7.108888">
        <ele>268.584990</ele>
        <time>2024-03-03T11:28:30.998Z</time>
      </trkpt>
      <trkpt lat="49.237216" lon="7.108842">
        <ele>269.063771</ele>
        <time>2024-03-03T11:28:40.999Z</time>
      </trkpt>
      <trkpt lat="49.237310" lon="7.108828">
        <ele>269.500843</ele>
        <time>2024-03-03T11:28:46.999Z</time>
      </trkpt>
      <trkpt lat="49.237408" lon="7.108784">
        <ele>269.973461</ele>
        <time>2024-03-03T11:28:56.999Z</time>
      </trkpt>
      <trkpt lat="49.237489" lon="7.108852">
        <ele>270.400939</ele>
        <time>2024-03-03T11:29:08.999Z</time>
      </trkpt>
      <trkpt lat="49.237554" lon="7.108976">
        <ele>270.425984</ele>
        <time>2024-03-03T11:29:19.999Z</time>
      </trkpt>
      <trkpt lat="49.237621" lon="7.109092">
        <ele>270.439668</ele>
        <time>2024-03-03T11:29:28.999Z</time>
      </trkpt>
      <trkpt lat="49.237686" lon="7.109202">
        <ele>270.452776</ele>
        <time>2024-03-03T11:29:36.999Z</time>
      </trkpt>
      <trkpt lat="49.237725" lon="7.109329">
        <ele>270.465177</ele>
        <time>2024-03-03T11:29:52.999Z</time>
      </trkpt>
      <trkpt lat="49.237684" lon="7.109206">
        <ele>270.477379</ele>
        <time>2024-03-03T11:30:03.999Z</time>
      </trkpt>
      <trkpt lat="49.237662" lon="7.109060">
        <ele>270.490618</ele>
        <time>2024-03-03T11:30:12.999Z</time>
      </trkpt>
      <trkpt lat="49.237749" lon="7.109016">
        <ele>270.503017</ele>
        <time>2024-03-03T11:30:18.999Z</time>
      </trkpt>
      <trkpt lat="49.237830" lon="7.108938">
        <ele>270.515965</ele>
        <time>2024-03-03T11:30:24.998Z</time>
      </trkpt>
      <trkpt lat="49.237853" lon="7.108794">
        <ele>270.529064</ele>
        <time>2024-03-03T11:30:33.998Z</time>
      </trkpt>
      <trkpt lat="49.237900" lon="7.108672">
        <ele>270.541580</ele>
        <time>2024-03-03T11:30:42.999Z</time>
      </trkpt>
      <trkpt lat="49.237946" lon="7.108536">
        <ele>270.555113</ele>
        <time>2024-03-03T11:30:48.999Z</time>
      </trkpt>
      <trkpt lat="49.238022" lon="7.108427">
        <ele>270.569203</ele>
        <time>2024-03-03T11:30:55.999Z</time>
      </trkpt>
      <trkpt lat="49.238088" lon="7.108312">
        <ele>270.582731</ele>
        <time>2024-03-03T11:31:03.999Z</time>
      </trkpt>
      <trkpt lat="49.238154" lon="7.108203">
        <ele>270.595866</ele>
        <time>2024-03-03T11:31:10.999Z</time>
      </trkpt>
      <trkpt lat="49.238239" lon="7.108119">
        <ele>270.609555</ele>
        <time>2024-03-03T11:31:16.999Z</time>
      </trkpt>
      <trkpt lat="49.238316" lon="7.108013">
        <ele>270.623566</ele>
        <time>2024-03-03T11:31:22.999Z</time>
      </trkpt>
      <trkpt lat="49.238384" lon="7.107916">
        <ele>270.636141</ele>
        <time>2024-03-03T11:31:29.999Z</time>
      </trkpt>
      <trkpt lat="49.238471" lon="7.107847">
        <ele>270.649399</ele>
        <time>2024-03-03T11:31:35.999Z</time>
      </trkpt>
      <trkpt lat="49.238529" lon="7.107725">
        <ele>270.812605</ele>
        <time>2024-03-03T11:31:42.999Z</time>
      </trkpt>
      <trkpt lat="49.238576" lon="7.107604">
        <ele>271.088876</ele>
        <time>2024-03-03T11:31:48.999Z</time>
      </trkpt>
      <trkpt lat="49.238665" lon="7.107499">
        <ele>271.426507</ele>
        <time>2024-03-03T11:31:55.999Z</time>
      </trkpt>
      <trkpt lat="49.238696" lon="7.107366">
        <ele>271.703616</ele>
        <time>2024-03-03T11:32:04.999Z</time>
      </trkpt>
      <trkpt lat="49.238756" lon="7.107252">
        <ele>271.990940</ele>
        <time>2024-03-03T11:32:15.999Z</time>
      </trkpt>
      <trkpt lat="49.238822" lon="7.107158">
        <ele>272.261802</ele>
        <time>2024-03-03T11:32:23.999Z</time>
      </trkpt>
      <trkpt lat="49.238828" lon="7.107015">
        <ele>272.542979</ele>
        <time>2024-03-03T11:32:32.999Z</time>
      </trkpt>
      <trkpt lat="49.238875" lon="7.106869">
        <ele>272.862394</ele>
        <time>2024-03-03T11:32:41.998Z</time>
      </trkpt>
      <trkpt lat="49.238962" lon="7.106784">
        <ele>273.172529</ele>
        <time>2024-03-03T11:32:50.000Z</time>
      </trkpt>
      <trkpt lat="49.239037" lon="7.106689">
        <ele>273.465028</ele>
        <time>2024-03-03T11:32:57.000Z</time>
      </trkpt>
      <trkpt lat="49.239111" lon="7.106590">
        <ele>273.760320</ele>
        <time>2024-03-03T11:33:04.000Z</time>
      </trkpt>
      <trkpt lat="49.239117" lon="7.106440">
        <ele>274.055204</ele>
        <time>2024-03-03T11:33:12.999Z</time>
      </trkpt>
      <trkpt lat="49.239148" lon="7.106305">
        <ele>274.336010</ele>
        <time>2024-03-03T11:33:19.999Z</time>
      </trkpt>
      <trkpt lat="49.239201" lon="7.106178">
        <ele>274.631768</ele>
        <time>2024-03-03T11:33:28.999Z</time>
      </trkpt>
      <trkpt lat="49.239199" lon="7.106019">
        <ele>274.943818</ele>
        <time>2024-03-03T11:33:36.999Z</time>
      </trkpt>
      <trkpt lat="49.239263" lon="7.105884">
        <ele>275.271182</ele>
        <time>2024-03-03T11:33:47.999Z</time>
      </trkpt>
      <trkpt lat="49.239227" lon="7.105754">
        <ele>275.548266</ele>
        <time>2024-03-03T11:33:54.999Z</time>
      </trkpt>
      <trkpt lat="49.239240" lon="7.105609">
        <ele>275.835457</ele>
        <time>2024-03-03T11:34:02.999Z</time>
      </trkpt>
      <trkpt lat="49.239276" lon="7.105482">
        <ele>276.140822</ele>
        <time>2024-03-03T11:34:10.999Z</time>
      </trkpt>
      <trkpt lat="49.239392" lon="7.105457">
        <ele>276.751428</ele>
        <time>2024-03-03T11:34:19.999Z</time>
      </trkpt>
      <trkpt lat="49.239488" lon="7.105490">
        <ele>277.264275</ele>
        <time>2024-03-03T11:34:29.999Z</time>
      </trkpt>
      <trkpt lat="49.239574" lon="7.105541">
        <ele>277.744977</ele>
        <time>2024-03-03T11:34:36.999Z</time>
      </trkpt>
      <trkpt lat="49.239668" lon="7.105549">
        <ele>278.235708</ele>
        <time>2024-03-03T11:34:45.999Z</time>
      </trkpt>
      <trkpt lat="49.239762" lon="7.105540">
        <ele>278.726639</ele>
        <time>2024-03-03T11:34:56.000Z</time>
      </trkpt>
      <trkpt lat="49.239850" lon="7.105512">
        <ele>279.195131</ele>
        <time>2024-03-03T11:35:02.000Z</time>
      </trkpt>
      <trkpt lat="49.239857" lon="7.105372">
        <ele>279.672975</ele>
        <time>2024-03-03T11:35:10.000Z</time>
      </trkpt>
      <trkpt lat="49.239845" lon="7.105233">
        <ele>280.150138</ele>
        <time>2024-03-03T11:35:18.000Z</time>
      </trkpt>
      <trkpt lat="49.239902" lon="7.105108">
        <ele>280.669023</ele>
        <time>2024-03-03T11:35:26.000Z</time>
      </trkpt>
      <trkpt lat="49.239912" lon="7.104967">
        <ele>281.151697</ele>
        <time>2024-03-03T11:35:34.999Z</time>
      </trkpt>
      <trkpt lat="49.239936" lon="7.104830">
        <ele>281.634428</ele>
        <time>2024-03-03T11:35:41.999Z</time>
      </trkpt>
      <trkpt lat="49.239980" lon="7.104698">
        <ele>282.138810</ele>
        <time>2024-03-03T11:35:50.999Z</time>
      </trkpt>
      <trkpt lat="49.240011" lon="7.104562">
        <ele>282.629041</ele>
        <time>2024-03-03T11:35:58.999Z</time>
      </trkpt>
      <trkpt lat="49.240058" lon="7.104416">
        <ele>283.183022</ele>
        <time>2024-03-03T11:36:07.999Z</time>
      </trkpt>
      <trkpt lat="49.240054" lon="7.104272">
        <ele>283.673525</ele>
        <time>2024-03-03T11:36:16.999Z</time>
      </trkpt>
      <trkpt lat="49.240067" lon="7.104120">
        <ele>284.195230</ele>
        <time>2024-03-03T11:36:25.999Z</time>
      </trkpt>
      <trkpt lat="49.240084" lon="7.103977">
        <ele>284.689888</ele>
        <time>2024-03-03T11:36:33.999Z</time>
      </trkpt>
      <trkpt lat="49.240058" lon="7.103837">
        <ele>285.185234</ele>
        <time>2024-03-03T11:36:43.999Z</time>
      </trkpt>
      <trkpt lat="49.240066" lon="7.103699">
        <ele>285.840200</ele>
        <time>2024-03-03T11:36:50.999Z</time>
      </trkpt>
      <trkpt lat="49.240100" lon="7.103560">
        <ele>286.766549</ele>
        <time>2024-03-03T11:36:59.000Z</time>
      </trkpt>
      <trkpt lat="49.240084" lon="7.103422">
        <ele>287.641250</ele>
        <time>2024-03-03T11:37:10.000Z</time>
      </trkpt>
      <trkpt lat="49.240073" lon="7.103257">
        <ele>288.676332</ele>
        <time>2024-03-03T11:37:18.000Z</time>
      </trkpt>
      <trkpt lat="49.240101" lon="7.103123">
        <ele>289.554381</ele>
        <time>2024-03-03T11:37:28.000Z</time>
      </trkpt>
      <trkpt lat="49.240119" lon="7.102982">
        <ele>290.450993</ele>
        <time>2024-03-03T11:37:38.000Z</time>
      </trkpt>
      <trkpt lat="49.240124" lon="7.102836">
        <ele>291.363398</ele>
        <time>2024-03-03T11:37:45.999Z</time>
      </trkpt>
      <trkpt lat="49.240093" lon="7.102703">
        <ele>292.244728</ele>
        <time>2024-03-03T11:37:54.999Z</time>
      </trkpt>
      <trkpt lat="49.240054" lon="7.102576">
        <ele>293.120600</ele>
        <time>2024-03-03T11:38:01.999Z</time>
      </trkpt>
      <trkpt lat="49.239971" lon="7.102472">
        <ele>294.145633</ele>
        <time>2024-03-03T11:38:10.999Z</time>
      </trkpt>
      <trkpt lat="49.239877" lon="7.102430">
        <ele>295.081600</ele>
        <time>2024-03-03T11:38:24.999Z</time>
      </trkpt>
      <trkpt lat="49.239797" lon="7.102340">
        <ele>296.030406</ele>
        <time>2024-03-03T11:38:32.999Z</time>
      </trkpt>
      <trkpt lat="49.239682" lon="7.102321">
        <ele>297.136031</ele>
        <time>2024-03-03T11:38:42.999Z</time>
      </trkpt>
      <trkpt lat="49.239591" lon="7.102272">
        <ele>298.058059</ele>
        <time>2024-03-03T11:38:51.999Z</time>
      </trkpt>
      <trkpt lat="49.239491" lon="7.102296">
        <ele>299.025591</ele>
        <time>2024-03-03T11:39:00.999Z</time>
      </trkpt>
      <trkpt lat="49.239409" lon="7.102353">
        <ele>299.886348</ele>
        <time>2024-03-03T11:39:10.000Z</time>
      </trkpt>
      <trkpt lat="49.239327" lon="7.102436">
        <ele>300.825857</ele>
        <time>2024-03-03T11:39:17.000Z</time>
      </trkpt>
      <trkpt lat="49.239256" lon="7.102544">
        <ele>301.782352</ele>
        <time>2024-03-03T11:39:39.000Z</time>
      </trkpt>
      <trkpt lat="49.239184" lon="7.102650">
        <ele>302.715273</ele>
        <time>2024-03-03T11:39:49.000Z</time>
      </trkpt>
      <trkpt lat="49.239113" lon="7.102753">
        <ele>303.461679</ele>
        <time>2024-03-03T11:39:57.000Z</time>
      </trkpt>
      <trkpt lat="49.239050" lon="7.102869">
        <ele>304.213593</ele>
        <time>2024-03-03T11:40:06.999Z</time>
      </trkpt>
      <trkpt lat="49.238983" lon="7.102961">
        <ele>304.900397</ele>
        <time>2024-03-03T11:40:15.999Z</time>
      </trkpt>
      <trkpt lat="49.238910" lon="7.103058">
        <ele>305.638030</ele>
        <time>2024-03-03T11:40:26.999Z</time>
      </trkpt>
      <trkpt lat="49.238871" lon="7.103185">
        <ele>306.337420</ele>
        <time>2024-03-03T11:40:35.999Z</time>
      </trkpt>
      <trkpt lat="49.238783" lon="7.103254">
        <ele>307.091982</ele>
        <time>2024-03-03T11:40:43.999Z</time>
      </trkpt>
      <trkpt lat="49.238715" lon="7.103356">
        <ele>307.818442</ele>
        <time>2024-03-03T11:40:54.999Z</time>
      </trkpt>
      <trkpt lat="49.238625" lon="7.103402">
        <ele>308.542609</ele>
        <time>2024-03-03T11:41:07.999Z</time>
      </trkpt>
      <trkpt lat="49.238542" lon="7.103467">
        <ele>309.254118</ele>
        <time>2024-03-03T11:41:20.000Z</time>
      </trkpt>
      <trkpt lat="49.238457" lon="7.103512">
        <ele>309.940547</ele>
        <time>2024-03-03T11:41:29.000Z</time>
      </trkpt>
      <trkpt lat="49.238378" lon="7.103621">
        <ele>310.752105</ele>
        <time>2024-03-03T11:41:38.000Z</time>
      </trkpt>
      <trkpt lat="49.238276" lon="7.103681">
        <ele>311.586067</ele>
        <time>2024-03-03T11:41:47.000Z</time>
      </trkpt>
      <trkpt lat="49.238210" lon="7.103777">
        <ele>312.280785</ele>
        <time>2024-03-03T11:42:02.000Z</time>
      </trkpt>
      <trkpt lat="49.238139" lon="7.103865">
        <ele>312.977910</ele>
        <time>2024-03-03T11:42:12.999Z</time>
      </trkpt>
      <trkpt lat="49.238059" lon="7.103930">
        <ele>313.669112</ele>
        <time>2024-03-03T11:42:21.999Z</time>
      </trkpt>
      <trkpt lat="49.238004" lon="7.104039">
        <ele>314.355611</ele>
        <time>2024-03-03T11:42:31.999Z</time>
      </trkpt>
      <trkpt lat="49.237952" lon="7.104156">
        <ele>315.060935</ele>
        <time>2024-03-03T11:42:37.999Z</time>
      </trkpt>
      <trkpt lat="49.237902" lon="7.104280">
        <ele>315.787224</ele>
        <time>2024-03-03T11:42:45.999Z</time>
      </trkpt>
      <trkpt lat="49.237875" lon="7.104422">
        <ele>316.498054</ele>
        <time>2024-03-03T11:42:53.999Z</time>
      </trkpt>
      <trkpt lat="49.237867" lon="7.104570">
        <ele>317.121780</ele>
        <time>2024-03-03T11:43:10.999Z</time>
      </trkpt>
      <trkpt lat="49.237850" lon="7.104709">
        <ele>317.715734</ele>
        <time>2024-03-03T11:43:21.000Z</time>
      </trkpt>
      <trkpt lat="49.237878" lon="7.104848">
        <ele>318.326687</ele>
        <time>2024-03-03T11:43:30.000Z</time>
      </trkpt>
      <trkpt lat="49.237835" lon="7.104980">
        <ele>318.946259</ele>
        <time>2024-03-03T11:43:39.000Z</time>
      </trkpt>
      <trkpt lat="49.237804" lon="7.105128">
        <ele>319.599063</ele>
        <time>2024-03-03T11:43:51.000Z</time>
      </trkpt>
      <trkpt lat="49.237732" lon="7.105216">
        <ele>320.191610</ele>
        <time>2024-03-03T11:43:58.000Z</time>
      </trkpt>
      <trkpt lat="49.237641" lon="7.105289">
        <ele>320.852415</ele>
        <time>2024-03-03T11:44:17.000Z</time>
      </trkpt>
      <trkpt lat="49.237552" lon="7.105360">
        <ele>321.497927</ele>
        <time>2024-03-03T11:44:31.999Z</time>
      </trkpt>
      <trkpt lat="49.237491" lon="7.105475">
        <ele>322.120232</ele>
        <time>2024-03-03T11:44:40.999Z</time>
      </trkpt>
      <trkpt lat="49.237407" lon="7.105539">
        <ele>322.723742</ele>
        <time>2024-03-03T11:44:48.999Z</time>
      </trkpt>
      <trkpt lat="49.237316" lon="7.105604">
        <ele>323.369644</ele>
        <time>2024-03-03T11:45:01.998Z</time>
      </trkpt>
      <trkpt lat="49.237259" lon="7.105715">
        <ele>323.962760</ele>
        <time>2024-03-03T11:45:41.999Z</time>
      </trkpt>
      <trkpt lat="49.237222" lon="7.105842">
        <ele>324.546858</ele>
        <time>2024-03-03T11:45:54.999Z</time>
      </trkpt>
      <trkpt lat="49.237151" lon="7.105932">
        <ele>325.139715</ele>
        <time>2024-03-03T11:46:02.999Z</time>
      </trkpt>
      <trkpt lat="49.237113" lon="7.106080">
        <ele>325.807659</ele>
        <time>2024-03-03T11:46:09.999Z</time>
      </trkpt>
      <trkpt lat="49.237073" lon="7.106211">
        <ele>326.415060</ele>
        <time>2024-03-03T11:46:17.999Z</time>
      </trkpt>
      <trkpt lat="49.237027" lon="7.106339">
        <ele>327.028722</ele>
        <time>2024-03-03T11:46:26.999Z</time>
      </trkpt>
      <trkpt lat="49.236994" lon="7.106511">
        <ele>327.781677</ele>
        <time>2024-03-03T11:46:36.999Z</time>
      </trkpt>
      <trkpt lat="49.236951" lon="7.106650">
        <ele>327.701974</ele>
        <time>2024-03-03T11:46:46.998Z</time>
      </trkpt>
      <trkpt lat="49.236885" lon="7.106760">
        <ele>327.418979</ele>
        <time>2024-03-03T11:46:52.998Z</time>
      </trkpt>
      <trkpt lat="49.236836" lon="7.106882">
        <ele>327.147648</ele>
        <time>2024-03-03T11:47:02.998Z</time>
      </trkpt>
      <trkpt lat="49.236800" lon="7.107023">
        <ele>326.860853</ele>
        <time>2024-03-03T11:47:10.998Z</time>
      </trkpt>
      <trkpt lat="49.236732" lon="7.107141">
        <ele>326.562713</ele>
        <time>2024-03-03T11:47:18.998Z</time>
      </trkpt>
      <trkpt lat="49.236687" lon="7.107260">
        <ele>326.302210</ele>
        <time>2024-03-03T11:47:25.998Z</time>
      </trkpt>
      <trkpt lat="49.236625" lon="7.107368">
        <ele>326.029791</ele>
        <time>2024-03-03T11:47:32.999Z</time>
      </trkpt>
      <trkpt lat="49.236573" lon="7.107487">
        <ele>325.758540</ele>
        <time>2024-03-03T11:47:41.999Z</time>
      </trkpt>
      <trkpt lat="49.236505" lon="7.107600">
        <ele>325.467433</ele>
        <time>2024-03-03T11:47:51.999Z</time>
      </trkpt>
      <trkpt lat="49.236439" lon="7.107695">
        <ele>325.204656</ele>
        <time>2024-03-03T11:47:58.999Z</time>
      </trkpt>
      <trkpt lat="49.236403" lon="7.107827">
        <ele>324.933666</ele>
        <time>2024-03-03T11:48:02.999Z</time>
      </trkpt>
      <trkpt lat="49.236351" lon="7.107951">
        <ele>324.654493</ele>
        <time>2024-03-03T11:48:14.999Z</time>
      </trkpt>
      <trkpt lat="49.236281" lon="7.108045">
        <ele>324.384395</ele>
        <time>2024-03-03T11:48:21.999Z</time>
      </trkpt>
      <trkpt lat="49.236193" lon="7.108171">
        <ele>324.034888</ele>
        <time>2024-03-03T11:48:28.999Z</time>
      </trkpt>
      <trkpt lat="49.236137" lon="7.108313">
        <ele>323.720632</ele>
        <time>2024-03-03T11:48:39.999Z</time>
      </trkpt>
      <trkpt lat="49.236084" lon="7.108489">
        <ele>323.353476</ele>
        <time>2024-03-03T11:48:47.999Z</time>
      </trkpt>
      <trkpt lat="49.235987" lon="7.108621">
        <ele>322.977011</ele>
        <time>2024-03-03T11:48:58.999Z</time>
      </trkpt>
      <trkpt lat="49.235977" lon="7.108769">
        <ele>322.692043</ele>
        <time>2024-03-03T11:49:07.998Z</time>
      </trkpt>
      <trkpt lat="49.235941" lon="7.108913">
        <ele>322.335519</ele>
        <time>2024-03-03T11:49:14.998Z</time>
      </trkpt>
      <trkpt lat="49.235859" lon="7.109038">
        <ele>321.925822</ele>
        <time>2024-03-03T11:49:22.998Z</time>
      </trkpt>
      <trkpt lat="49.235815" lon="7.109167">
        <ele>321.589306</ele>
        <time>2024-03-03T11:49:31.998Z</time>
      </trkpt>
      <trkpt lat="49.235743" lon="7.109278">
        <ele>321.227537</ele>
        <time>2024-03-03T11:49:38.999Z</time>
      </trkpt>
      <trkpt lat="49.235708" lon="7.109412">
        <ele>320.893834</ele>
        <time>2024-03-03T11:49:50.999Z</time>
      </trkpt>
      <trkpt lat="49.235636" lon="7.109543">
        <ele>320.497914</ele>
        <time>2024-03-03T11:49:56.999Z</time>
      </trkpt>
      <trkpt lat="49.235565" lon="7.109634">
        <ele>320.170065</ele>
        <time>2024-03-03T11:50:17.999Z</time>
      </trkpt>
      <trkpt lat="49.235533" lon="7.109813">
        <ele>319.740950</ele>
        <time>2024-03-03T11:50:27.999Z</time>
      </trkpt>
      <trkpt lat="49.235446" lon="7.109888">
        <ele>319.387416</ele>
        <time>2024-03-03T11:50:34.999Z</time>
      </trkpt>
      <trkpt lat="49.235406" lon="7.110016">
        <ele>319.059305</ele>
        <time>2024-03-03T11:50:43.999Z</time>
      </trkpt>
      <trkpt lat="49.235329" lon="7.110091">
        <ele>318.736162</ele>
        <time>2024-03-03T11:51:00.999Z</time>
      </trkpt>
      <trkpt lat="49.235296" lon="7.110233">
        <ele>318.387653</ele>
        <time>2024-03-03T11:51:11.999Z</time>
      </trkpt>
      <trkpt lat="49.235206" lon="7.110306">
        <ele>318.027011</ele>
        <time>2024-03-03T11:51:19.998Z</time>
      </trkpt>
      <trkpt lat="49.235123" lon="7.110395">
        <ele>317.668215</ele>
        <time>2024-03-03T11:51:25.998Z</time>
      </trkpt>
      <trkpt lat="49.235043" lon="7.110476">
        <ele>317.328610</ele>
        <time>2024-03-03T11:51:31.998Z</time>
      </trkpt>
      <trkpt lat="49.234960" lon="7.110531">
        <ele>317.008362</ele>
        <time>2024-03-03T11:51:39.999Z</time>
      </trkpt>
      <trkpt lat="49.234895" lon="7.110639">
        <ele>316.668743</ele>
        <time>2024-03-03T11:51:56.999Z</time>
      </trkpt>
      <trkpt lat="49.234821" lon="7.110735">
        <ele>316.324708</ele>
        <time>2024-03-03T11:52:02.999Z</time>
      </trkpt>
      <trkpt lat="49.234736" lon="7.110827">
        <ele>315.940753</ele>
        <time>2024-03-03T11:52:11.999Z</time>
      </trkpt>
      <trkpt lat="49.234652" lon="7.110907">
        <ele>315.575860</ele>
        <time>2024-03-03T11:52:22.999Z</time>
      </trkpt>
      <trkpt lat="49.234573" lon="7.110986">
        <ele>315.227817</ele>
        <time>2024-03-03T11:52:30.999Z</time>
      </trkpt>
      <trkpt lat="49.234498" lon="7.111063">
        <ele>314.894737</ele>
        <time>2024-03-03T11:52:36.999Z</time>
      </trkpt>
      <trkpt lat="49.234420" lon="7.111165">
        <ele>314.516384</ele>
        <time>2024-03-03T11:52:44.999Z</time>
      </trkpt>
      <trkpt lat="49.234324" lon="7.111225">
        <ele>314.133899</ele>
        <time>2024-03-03T11:52:56.999Z</time>
      </trkpt>
      <trkpt lat="49.234227" lon="7.111194">
        <ele>313.768372</ele>
        <time>2024-03-03T11:53:03.999Z</time>
      </trkpt>
      <trkpt lat="49.234129" lon="7.111238">
        <ele>313.391649</ele>
        <time>2024-03-03T11:53:10.999Z</time>
      </trkpt>
      <trkpt lat="49.234040" lon="7.111210">
        <ele>313.056484</ele>
        <time>2024-03-03T11:53:20.999Z</time>
      </trkpt>
      <trkpt lat="49.233951" lon="7.111167">
        <ele>312.712226</ele>
        <time>2024-03-03T11:53:30.999Z</time>
      </trkpt>
      <trkpt lat="49.233861" lon="7.111082">
        <ele>312.322173</ele>
        <time>2024-03-03T11:53:39.998Z</time>
      </trkpt>
      <trkpt lat="49.233767" lon="7.111042">
        <ele>311.962284</ele>
        <time>2024-03-03T11:53:46.000Z</time>
      </trkpt>
      <trkpt lat="49.233672" lon="7.111003">
        <ele>311.599470</ele>
        <time>2024-03-03T11:53:55.000Z</time>
      </trkpt>
      <trkpt lat="49.233573" lon="7.110995">
        <ele>311.233765</ele>
        <time>2024-03-03T11:54:02.000Z</time>
      </trkpt>
      <trkpt lat="49.233467" lon="7.110938">
        <ele>310.819342</ele>
        <time>2024-03-03T11:54:09.999Z</time>
      </trkpt>
      <trkpt lat="49.233389" lon="7.110847">
        <ele>310.457629</ele>
        <time>2024-03-03T11:54:21.999Z</time>
      </trkpt>
      <trkpt lat="49.233300" lon="7.110789">
        <ele>310.100832</ele>
        <time>2024-03-03T11:54:27.999Z</time>
      </trkpt>
      <trkpt lat="49.233219" lon="7.110715">
        <ele>309.752906</ele>
        <time>2024-03-03T11:54:34.999Z</time>
      </trkpt>
      <trkpt lat="49.233129" lon="7.110680">
        <ele>308.964343</ele>
        <time>2024-03-03T11:54:43.999Z</time>
      </trkpt>
      <trkpt lat="49.233023" lon="7.110622">
        <ele>307.920577</ele>
        <time>2024-03-03T11:54:53.999Z</time>
      </trkpt>
      <trkpt lat="49.232939" lon="7.110543">
        <ele>307.006513</ele>
        <time>2024-03-03T11:55:01.999Z</time>
      </trkpt>
      <trkpt lat="49.232834" lon="7.110565">
        <ele>306.023804</ele>
        <time>2024-03-03T11:55:07.999Z</time>
      </trkpt>
      <trkpt lat="49.232742" lon="7.110517">
        <ele>305.122561</ele>
        <time>2024-03-03T11:55:17.999Z</time>
      </trkpt>
      <trkpt lat="49.232651" lon="7.110485">
        <ele>304.256781</ele>
        <time>2024-03-03T11:55:24.999Z</time>
      </trkpt>
      <trkpt lat="49.232576" lon="7.110581">
        <ele>303.350389</ele>
        <time>2024-03-03T11:55:36.999Z</time>
      </trkpt>
      <trkpt lat="49.232484" lon="7.110583">
        <ele>302.497210</ele>
        <time>2024-03-03T11:55:46.999Z</time>
      </trkpt>
      <trkpt lat="49.232377" lon="7.110502">
        <ele>301.390423</ele>
        <time>2024-03-03T11:55:56.000Z</time>
      </trkpt>
      <trkpt lat="49.232274" lon="7.110517">
        <ele>300.431021</ele>
        <time>2024-03-03T11:56:06.000Z</time>
      </trkpt>
      <trkpt lat="49.232178" lon="7.110491">
        <ele>299.527023</ele>
        <time>2024-03-03T11:56:15.000Z</time>
      </trkpt>
      <trkpt lat="49.232069" lon="7.110573">
        <ele>298.400923</ele>
        <time>2024-03-03T11:56:22.000Z</time>
      </trkpt>
      <trkpt lat="49.231950" lon="7.110546">
        <ele>297.285420</ele>
        <time>2024-03-03T11:56:32.999Z</time>
      </trkpt>
      <trkpt lat="49.231857" lon="7.110549">
        <ele>296.422863</ele>
        <time>2024-03-03T11:56:47.999Z</time>
      </trkpt>
      <trkpt lat="49.231767" lon="7.110569">
        <ele>295.579575</ele>
        <time>2024-03-03T11:56:55.999Z</time>
      </trkpt>
      <trkpt lat="49.231670" lon="7.110573">
        <ele>294.679792</ele>
        <time>2024-03-03T11:57:05.999Z</time>
      </trkpt>
      <trkpt lat="49.231580" lon="7.110558">
        <ele>293.840317</ele>
        <time>2024-03-03T11:57:13.999Z</time>
      </trkpt>
      <trkpt lat="49.231480" lon="7.110573">
        <ele>292.972806</ele>
        <time>2024-03-03T11:57:19.999Z</time>
      </trkpt>
      <trkpt lat="49.231373" lon="7.110592">
        <ele>292.517153</ele>
        <time>2024-03-03T11:57:28.999Z</time>
      </trkpt>
      <trkpt lat="49.231279" lon="7.110553">
        <ele>292.105190</ele>
        <time>2024-03-03T11:57:37.999Z</time>
      </trkpt>
      <trkpt lat="49.231188" lon="7.110565">
        <ele>291.718826</ele>
        <time>2024-03-03T11:57:45.999Z</time>
      </trkpt>
      <trkpt lat="49.231110" lon="7.110452">
        <ele>291.264628</ele>
        <time>2024-03-03T11:57:55.999Z</time>
      </trkpt>
      <trkpt lat="49.231038" lon="7.110347">
        <ele>290.844052</ele>
        <time>2024-03-03T11:58:04.000Z</time>
      </trkpt>
      <trkpt lat="49.230958" lon="7.110274">
        <ele>290.450121</ele>
        <time>2024-03-03T11:58:13.000Z</time>
      </trkpt>
      <trkpt lat="49.230887" lon="7.110184">
        <ele>290.060239</ele>
        <time>2024-03-03T11:58:18.000Z</time>
      </trkpt>
      <trkpt lat="49.230798" lon="7.110150">
        <ele>289.672223</ele>
        <time>2024-03-03T11:58:25.000Z</time>
      </trkpt>
      <trkpt lat="49.230716" lon="7.110079">
        <ele>289.273748</ele>
        <time>2024-03-03T11:58:34.000Z</time>
      </trkpt>
      <trkpt lat="49.230694" lon="7.109941">
        <ele>288.881354</ele>
        <time>2024-03-03T11:58:48.999Z</time>
      </trkpt>
      <trkpt lat="49.230614" lon="7.109843">
        <ele>288.447993</ele>
        <time>2024-03-03T11:58:54.999Z</time>
      </trkpt>
      <trkpt lat="49.230553" lon="7.109725">
        <ele>288.032266</ele>
        <time>2024-03-03T11:59:01.999Z</time>
      </trkpt>
      <trkpt lat="49.230464" lon="7.109687">
        <ele>287.641428</ele>
        <time>2024-03-03T11:59:09.999Z</time>
      </trkpt>
      <trkpt lat="49.230380" lon="7.109748">
        <ele>287.248171</ele>
        <time>2024-03-03T11:59:21.999Z</time>
      </trkpt>
      <trkpt lat="49.230257" lon="7.109726">
        <ele>286.724333</ele>
        <time>2024-03-03T11:59:26.999Z</time>
      </trkpt>
      <trkpt lat="49.230164" lon="7.109725">
        <ele>286.330924</ele>
        <time>2024-03-03T11:59:33.999Z</time>
      </trkpt>
      <trkpt lat="49.230079" lon="7.109783">
        <ele>285.937286</ele>
        <time>2024-03-03T11:59:40.999Z</time>
      </trkpt>
      <trkpt lat="49.230024" lon="7.109913">
        <ele>285.509401</ele>
        <time>2024-03-03T11:59:50.999Z</time>
      </trkpt>
      <trkpt lat="49.229936" lon="7.109968">
        <ele>285.322206</ele>
        <time>2024-03-03T11:59:59.999Z</time>
      </trkpt>
      <trkpt lat="49.229881" lon="7.110077">
        <ele>285.204677</ele>
        <time>2024-03-03T12:00:04.000Z</time>
      </trkpt>
      <trkpt lat="49.229806" lon="7.110155">
        <ele>285.086222</ele>
        <time>2024-03-03T12:00:12.000Z</time>
      </trkpt>
      <trkpt lat="49.229742" lon="7.110268">
        <ele>284.958598</ele>
        <time>2024-03-03T12:00:21.000Z</time>
      </trkpt>
      <trkpt lat="49.229647" lon="7.110256">
        <ele>284.834053</ele>
        <time>2024-03-03T12:00:31.000Z</time>
      </trkpt>
      <trkpt lat="49.229556" lon="7.110250">
        <ele>284.715046</ele>
        <time>2024-03-03T12:00:37.000Z</time>
      </trkpt>
      <trkpt lat="49.229460" lon="7.110212">
        <ele>284.585493</ele>
        <time>2024-03-03T12:00:45.000Z</time>
      </trkpt>
      <trkpt lat="49.229380" lon="7.110132">
        <ele>284.460655</ele>
        <time>2024-03-03T12:00:56.000Z</time>
      </trkpt>
      <trkpt lat="49.229290" lon="7.110103">
        <ele>284.340489</ele>
        <time>2024-03-03T12:01:05.000Z</time>
      </trkpt>
      <trkpt lat="49.229200" lon="7.110055">
        <ele>284.215970</ele>
        <time>2024-03-03T12:01:12.999Z</time>
      </trkpt>
      <trkpt lat="49.229116" lon="7.109994">
        <ele>284.094503</ele>
        <time>2024-03-03T12:01:20.999Z</time>
      </trkpt>
      <trkpt lat="49.229043" lon="7.109891">
        <ele>283.964809</ele>
        <time>2024-03-03T12:01:29.999Z</time>
      </trkpt>
      <trkpt lat="49.228999" lon="7.109749">
        <ele>283.830703</ele>
        <time>2024-03-03T12:01:37.999Z</time>
      </trkpt>
      <trkpt lat="49.228989" lon="7.109602">
        <ele>283.704599</ele>
        <time>2024-03-03T12:01:47.999Z</time>
      </trkpt>
      <trkpt lat="49.228983" lon="7.109464">
        <ele>283.586592</ele>
        <time>2024-03-03T12:01:57.999Z</time>
      </trkpt>
      <trkpt lat="49.228983" lon="7.109303">
        <ele>283.449221</ele>
        <time>2024-03-03T12:02:03.999Z</time>
      </trkpt>
      <trkpt lat="49.228980" lon="7.109149">
        <ele>283.317765</ele>
        <time>2024-03-03T12:02:10.000Z</time>
      </trkpt>
      <trkpt lat="49.228985" lon="7.108993">
        <ele>283.184500</ele>
        <time>2024-03-03T12:02:16.000Z</time>
      </trkpt>
      <trkpt lat="49.228989" lon="7.108842">
        <ele>283.125601</ele>
        <time>2024-03-03T12:02:23.000Z</time>
      </trkpt>
      <trkpt lat="49.228953" lon="7.108711">
        <ele>283.676510</ele>
        <time>2024-03-03T12:02:39.000Z</time>
      </trkpt>
      <trkpt lat="49.228893" lon="7.108587">
        <ele>284.274720</ele>
        <time>2024-03-03T12:03:08.000Z</time>
      </trkpt>
      <trkpt lat="49.228926" lon="7.108455">
        <ele>284.822589</ele>
        <time>2024-03-03T12:03:17.000Z</time>
      </trkpt>
      <trkpt lat="49.228908" lon="7.108303">
        <ele>285.421378</ele>
        <time>2024-03-03T12:03:24.999Z</time>
      </trkpt>
      <trkpt lat="49.228899" lon="7.108154">
        <ele>286.001396</ele>
        <time>2024-03-03T12:03:32.999Z</time>
      </trkpt>
      <trkpt lat="49.228846" lon="7.108031">
        <ele>286.572602</ele>
        <time>2024-03-03T12:03:43.998Z</time>
      </trkpt>
      <trkpt lat="49.228812" lon="7.107889">
        <ele>287.158852</ele>
        <time>2024-03-03T12:03:50.998Z</time>
      </trkpt>
      <trkpt lat="49.228816" lon="7.107742">
        <ele>287.729147</ele>
        <time>2024-03-03T12:04:00.998Z</time>
      </trkpt>
      <trkpt lat="49.228810" lon="7.107576">
        <ele>288.373581</ele>
        <time>2024-03-03T12:04:09.998Z</time>
      </trkpt>
      <trkpt lat="49.228801" lon="7.107429">
        <ele>288.945880</ele>
        <time>2024-03-03T12:04:19.999Z</time>
      </trkpt>
      <trkpt lat="49.228765" lon="7.107285">
        <ele>289.543556</ele>
        <time>2024-03-03T12:04:28.999Z</time>
      </trkpt>
      <trkpt lat="49.228720" lon="7.107148">
        <ele>290.137986</ele>
        <time>2024-03-03T12:04:37.999Z</time>
      </trkpt>
      <trkpt lat="49.228715" lon="7.106996">
        <ele>290.727916</ele>
        <time>2024-03-03T12:04:44.999Z</time>
      </trkpt>
      <trkpt lat="49.228712" lon="7.106830">
        <ele>291.371612</ele>
        <time>2024-03-03T12:04:53.999Z</time>
      </trkpt>
      <trkpt lat="49.228721" lon="7.106691">
        <ele>291.913046</ele>
        <time>2024-03-03T12:05:06.999Z</time>
      </trkpt>
      <trkpt lat="49.228729" lon="7.106532">
        <ele>292.531189</ele>
        <time>2024-03-03T12:05:16.999Z</time>
      </trkpt>
      <trkpt lat="49.228769" lon="7.106398">
        <ele>293.102291</ele>
        <time>2024-03-03T12:05:25.999Z</time>
      </trkpt>
      <trkpt lat="49.228798" lon="7.106262">
        <ele>293.656845</ele>
        <time>2024-03-03T12:05:33.999Z</time>
      </trkpt>
      <trkpt lat="49.228864" lon="7.106153">
        <ele>293.232357</ele>
        <time>2024-03-03T12:05:43.998Z</time>
      </trkpt>
      <trkpt lat="49.228940" lon="7.106045">
        <ele>292.587814</ele>
        <time>2024-03-03T12:05:53.998Z</time>
      </trkpt>
      <trkpt lat="49.229013" lon="7.105954">
        <ele>292.002657</ele>
        <time>2024-03-03T12:06:03.998Z</time>
      </trkpt>
      <trkpt lat="49.229099" lon="7.105895">
        <ele>291.416840</ele>
        <time>2024-03-03T12:06:10.998Z</time>
      </trkpt>
      <trkpt lat="49.229203" lon="7.105887">
        <ele>290.769512</ele>
        <time>2024-03-03T12:06:20.999Z</time>
      </trkpt>
      <trkpt lat="49.229282" lon="7.105821">
        <ele>290.210078</ele>
        <time>2024-03-03T12:06:28.999Z</time>
      </trkpt>
      <trkpt lat="49.229374" lon="7.105825">
        <ele>289.637933</ele>
        <time>2024-03-03T12:06:40.999Z</time>
      </trkpt>
      <trkpt lat="49.229479" lon="7.105858">
        <ele>288.971599</ele>
        <time>2024-03-03T12:06:51.999Z</time>
      </trkpt>
      <trkpt lat="49.229563" lon="7.105937">
        <ele>288.358797</ele>
        <time>2024-03-03T12:07:03.999Z</time>
      </trkpt>
      <trkpt lat="49.229609" lon="7.106060">
        <ele>287.783388</ele>
        <time>2024-03-03T12:07:11.999Z</time>
      </trkpt>
      <trkpt lat="49.229649" lon="7.105933">
        <ele>287.210996</ele>
        <time>2024-03-03T12:07:26.999Z</time>
      </trkpt>
      <trkpt lat="49.229605" lon="7.105812">
        <ele>286.648771</ele>
        <time>2024-03-03T12:07:43.999Z</time>
      </trkpt>
      <trkpt lat="49.229551" lon="7.105695">
        <ele>286.067153</ele>
        <time>2024-03-03T12:07:58.999Z</time>
      </trkpt>
      <trkpt lat="49.229492" lon="7.105564">
        <ele>285.421141</ele>
        <time>2024-03-03T12:08:09.998Z</time>
      </trkpt>
      <trkpt lat="49.229422" lon="7.105469">
        <ele>284.839687</ele>
        <time>2024-03-03T12:08:21.998Z</time>
      </trkpt>
      <trkpt lat="49.229347" lon="7.105390">
        <ele>284.273801</ele>
        <time>2024-03-03T12:08:25.998Z</time>
      </trkpt>
      <trkpt lat="49.229263" lon="7.105329">
        <ele>283.695876</ele>
        <time>2024-03-03T12:08:35.999Z</time>
      </trkpt>
      <trkpt lat="49.229367" lon="7.105330">
        <ele>283.049351</ele>
        <time>2024-03-03T12:09:09.999Z</time>
      </trkpt>
      <trkpt lat="49.229470" lon="7.105308">
        <ele>282.165228</ele>
        <time>2024-03-03T12:09:21.999Z</time>
      </trkpt>
      <trkpt lat="49.229540" lon="7.105212">
        <ele>280.714558</ele>
        <time>2024-03-03T12:09:38.999Z</time>
      </trkpt>
      <trkpt lat="49.229515" lon="7.105074">
        <ele>279.270793</ele>
        <time>2024-03-03T12:09:47.999Z</time>
      </trkpt>
      <trkpt lat="49.229468" lon="7.104939">
        <ele>277.728481</ele>
        <time>2024-03-03T12:10:03.999Z</time>
      </trkpt>
      <trkpt lat="49.229468" lon="7.104788">
        <ele>276.206199</ele>
        <time>2024-03-03T12:10:21.998Z</time>
      </trkpt>
      <trkpt lat="49.229463" lon="7.104651">
        <ele>274.822899</ele>
        <time>2024-03-03T12:10:40.999Z</time>
      </trkpt>
      <trkpt lat="49.229431" lon="7.104495">
        <ele>273.174446</ele>
        <time>2024-03-03T12:10:58.999Z</time>
      </trkpt>
      <trkpt lat="49.229386" lon="7.104375">
        <ele>271.779408</ele>
        <time>2024-03-03T12:11:16.999Z</time>
      </trkpt>
      <trkpt lat="49.229317" lon="7.104274">
        <ele>270.305830</ele>
        <time>2024-03-03T12:11:40.999Z</time>
      </trkpt>
      <trkpt lat="49.229303" lon="7.104137">
        <ele>268.907874</ele>
        <time>2024-03-03T12:12:16.999Z</time>
      </trkpt>
      <trkpt lat="49.229268" lon="7.104006">
        <ele>267.480956</ele>
        <time>2024-03-03T12:12:32.998Z</time>
      </trkpt>
      <trkpt lat="49.229317" lon="7.103867">
        <ele>265.888508</ele>
        <time>2024-03-03T12:13:04.999Z</time>
      </trkpt>
      <trkpt lat="49.229294" lon="7.103733">
        <ele>264.491721</ele>
        <time>2024-03-03T12:13:22.999Z</time>
      </trkpt>
      <trkpt lat="49.229215" lon="7.103654">
        <ele>263.035121</ele>
        <time>2024-03-03T12:13:41.999Z</time>
      </trkpt>
      <trkpt lat="49.229232" lon="7.103513">
        <ele>261.589620</ele>
        <time>2024-03-03T12:13:52.999Z</time>
      </trkpt>
      <trkpt lat="49.229207" lon="7.103365">
        <ele>260.048467</ele>
        <time>2024-03-03T12:14:00.999Z</time>
      </trkpt>
      <trkpt lat="49.229113" lon="7.103275">
        <ele>258.337012</ele>
        <time>2024-03-03T12:14:10.999Z</time>
      </trkpt>
      <trkpt lat="49.229014" lon="7.103242">
        <ele>256.772883</ele>
        <time>2024-03-03T12:14:18.999Z</time>
      </trkpt>
      <trkpt lat="49.228928" lon="7.103280">
        <ele>255.391069</ele>
        <time>2024-03-03T12:14:27.999Z</time>
      </trkpt>
      <trkpt lat="49.228822" lon="7.103327">
        <ele>254.497382</ele>
        <time>2024-03-03T12:14:38.999Z</time>
      </trkpt>
      <trkpt lat="49.228725" lon="7.103334">
        <ele>254.093531</ele>
        <time>2024-03-03T12:14:44.000Z</time>
      </trkpt>
      <trkpt lat="49.228637" lon="7.103374">
        <ele>253.711775</ele>
        <time>2024-03-03T12:14:52.000Z</time>
      </trkpt>
      <trkpt lat="49.228549" lon="7.103446">
        <ele>253.296836</ele>
        <time>2024-03-03T12:15:03.000Z</time>
      </trkpt>
      <trkpt lat="49.228457" lon="7.103390">
        <ele>252.885108</ele>
        <time>2024-03-03T12:15:18.999Z</time>
      </trkpt>
      <trkpt lat="49.228405" lon="7.103510">
        <ele>252.493979</ele>
        <time>2024-03-03T12:15:24.999Z</time>
      </trkpt>
      <trkpt lat="49.228302" lon="7.103475">
        <ele>252.055203</ele>
        <time>2024-03-03T12:15:31.999Z</time>
      </trkpt>
      <trkpt lat="49.228221" lon="7.103539">
        <ele>251.676141</ele>
        <time>2024-03-03T12:15:39.999Z</time>
      </trkpt>
      <trkpt lat="49.228132" lon="7.103618">
        <ele>251.248318</ele>
        <time>2024-03-03T12:15:48.999Z</time>
      </trkpt>
      <trkpt lat="49.228068" lon="7.103723">
        <ele>250.858236</ele>
        <time>2024-03-03T12:15:55.999Z</time>
      </trkpt>
      <trkpt lat="49.227997" lon="7.103834">
        <ele>250.436255</ele>
        <time>2024-03-03T12:16:07.999Z</time>
      </trkpt>
      <trkpt lat="49.227917" lon="7.103903">
        <ele>250.054405</ele>
        <time>2024-03-03T12:16:14.999Z</time>
      </trkpt>
      <trkpt lat="49.227869" lon="7.104030">
        <ele>249.655885</ele>
        <time>2024-03-03T12:16:23.999Z</time>
      </trkpt>
      <trkpt lat="49.227813" lon="7.104165">
        <ele>249.221523</ele>
        <time>2024-03-03T12:16:33.999Z</time>
      </trkpt>
      <trkpt lat="49.227750" lon="7.104281">
        <ele>248.811767</ele>
        <time>2024-03-03T12:16:38.999Z</time>
      </trkpt>
      <trkpt lat="49.227678" lon="7.104399">
        <ele>248.373171</ele>
        <time>2024-03-03T12:16:46.999Z</time>
      </trkpt>
      <trkpt lat="49.227582" lon="7.104435">
        <ele>247.962130</ele>
        <time>2024-03-03T12:16:58.000Z</time>
      </trkpt>
      <trkpt lat="49.227493" lon="7.104544">
        <ele>247.488172</ele>
        <time>2024-03-03T12:17:07.000Z</time>
      </trkpt>
      <trkpt lat="49.227401" lon="7.104574">
        <ele>247.326303</ele>
        <time>2024-03-03T12:17:12.000Z</time>
      </trkpt>
      <trkpt lat="49.227318" lon="7.104631">
        <ele>247.344392</ele>
        <time>2024-03-03T12:17:21.000Z</time>
      </trkpt>
      <trkpt lat="49.227243" lon="7.104740">
        <ele>247.364955</ele>
        <time>2024-03-03T12:17:33.000Z</time>
      </trkpt>
      <trkpt lat="49.227227" lon="7.104880">
        <ele>247.383412</ele>
        <time>2024-03-03T12:17:43.999Z</time>
      </trkpt>
      <trkpt lat="49.227256" lon="7.105042">
        <ele>247.405226</ele>
        <time>2024-03-03T12:17:51.999Z</time>
      </trkpt>
      <trkpt lat="49.227311" lon="7.105160">
        <ele>247.424053</ele>
        <time>2024-03-03T12:17:59.999Z</time>
      </trkpt>
      <trkpt lat="49.227348" lon="7.105288">
        <ele>247.442231</ele>
        <time>2024-03-03T12:18:06.999Z</time>
      </trkpt>
      <trkpt lat="49.227398" lon="7.105406">
        <ele>247.460499</ele>
        <time>2024-03-03T12:18:15.999Z</time>
      </trkpt>
      <trkpt lat="49.227439" lon="7.105531">
        <ele>247.478664</ele>
        <time>2024-03-03T12:18:45.999Z</time>
      </trkpt>
      <trkpt lat="49.227411" lon="7.105666">
        <ele>247.497059</ele>
        <time>2024-03-03T12:19:09.000Z</time>
      </trkpt>
      <trkpt lat="49.227410" lon="7.105824">
        <ele>247.517578</ele>
        <time>2024-03-03T12:19:18.000Z</time>
      </trkpt>
      <trkpt lat="49.227421" lon="7.105975">
        <ele>247.537310</ele>
        <time>2024-03-03T12:19:27.000Z</time>
      </trkpt>
      <trkpt lat="49.227461" lon="7.106122">
        <ele>247.557991</ele>
        <time>2024-03-03T12:19:34.000Z</time>
      </trkpt>
      <trkpt lat="49.227498" lon="7.106268">
        <ele>247.578329</ele>
        <time>2024-03-03T12:19:42.000Z</time>
      </trkpt>
      <trkpt lat="49.227575" lon="7.106376">
        <ele>247.599093</ele>
        <time>2024-03-03T12:19:50.000Z</time>
      </trkpt>
      <trkpt lat="49.227599" lon="7.106511">
        <ele>247.617263</ele>
        <time>2024-03-03T12:19:58.999Z</time>
      </trkpt>
      <trkpt lat="49.227668" lon="7.106612">
        <ele>247.636245</ele>
        <time>2024-03-03T12:20:08.999Z</time>
      </trkpt>
      <trkpt lat="49.227712" lon="7.106734">
        <ele>247.654343</ele>
        <time>2024-03-03T12:20:17.999Z</time>
      </trkpt>
      <trkpt lat="49.227765" lon="7.106854">
        <ele>247.673157</ele>
        <time>2024-03-03T12:20:27.999Z</time>
      </trkpt>
      <trkpt lat="49.227819" lon="7.106992">
        <ele>247.754043</ele>
        <time>2024-03-03T12:20:38.999Z</time>
      </trkpt>
      <trkpt lat="49.227816" lon="7.107152">
        <ele>247.835550</ele>
        <time>2024-03-03T12:20:45.999Z</time>
      </trkpt>
      <trkpt lat="49.227864" lon="7.107272">
        <ele>247.907207</ele>
        <time>2024-03-03T12:20:53.999Z</time>
      </trkpt>
      <trkpt lat="49.227902" lon="7.107409">
        <ele>247.983001</ele>
        <time>2024-03-03T12:21:04.000Z</time>
      </trkpt>
      <trkpt lat="49.227974" lon="7.107523">
        <ele>248.063758</ele>
        <time>2024-03-03T12:21:11.000Z</time>
      </trkpt>
      <trkpt lat="49.227981" lon="7.107662">
        <ele>248.134748</ele>
        <time>2024-03-03T12:21:17.000Z</time>
      </trkpt>
      <trkpt lat="49.228007" lon="7.107800">
        <ele>248.207885</ele>
        <time>2024-03-03T12:21:24.000Z</time>
      </trkpt>
      <trkpt lat="49.228036" lon="7.107942">
        <ele>248.283646</ele>
        <time>2024-03-03T12:21:34.000Z</time>
      </trkpt>
      <trkpt lat="49.228081" lon="7.108066">
        <ele>248.355883</ele>
        <time>2024-03-03T12:21:44.000Z</time>
      </trkpt>
      <trkpt lat="49.228116" lon="7.108194">
        <ele>248.426545</ele>
        <time>2024-03-03T12:21:51.000Z</time>
      </trkpt>
      <trkpt lat="49.228135" lon="7.108351">
        <ele>248.507852</ele>
        <time>2024-03-03T12:21:58.000Z</time>
      </trkpt>
      <trkpt lat="49.228158" lon="7.108496">
        <ele>248.583834</ele>
        <time>2024-03-03T12:22:06.000Z</time>
      </trkpt>
      <trkpt lat="49.228125" lon="7.108634">
        <ele>248.658668</ele>
        <time>2024-03-03T12:22:13.998Z</time>
      </trkpt>
      <trkpt lat="49.228104" lon="7.108804">
        <ele>248.746768</ele>
        <time>2024-03-03T12:22:20.998Z</time>
      </trkpt>
      <trkpt lat="49.228072" lon="7.108975">
        <ele>248.837348</ele>
        <time>2024-03-03T12:22:30.998Z</time>
      </trkpt>
      <trkpt lat="49.228067" lon="7.109129">
        <ele>248.915863</ele>
        <time>2024-03-03T12:22:41.998Z</time>
      </trkpt>
      <trkpt lat="49.228038" lon="7.109261">
        <ele>248.986780</ele>
        <time>2024-03-03T12:22:48.998Z</time>
      </trkpt>
      <trkpt lat="49.228019" lon="7.109426">
        <ele>249.072096</ele>
        <time>2024-03-03T12:22:56.998Z</time>
      </trkpt>
      <trkpt lat="49.227993" lon="7.109563">
        <ele>249.075988</ele>
        <time>2024-03-03T12:23:05.998Z</time>
      </trkpt>
      <trkpt lat="49.227977" lon="7.109707">
        <ele>249.075988</ele>
        <time>2024-03-03T12:23:14.999Z</time>
      </trkpt>
      <trkpt lat="49.228034" lon="7.109821">
        <ele>249.075988</ele>
        <time>2024-03-03T12:23:21.999Z</time>
      </trkpt>
      <trkpt lat="49.228110" lon="7.109916">
        <ele>249.075988</ele>
        <time>2024-03-03T12:23:28.999Z</time>
      </trkpt>
      <trkpt lat="49.228187" lon="7.110014">
        <ele>249.075988</ele>
        <time>2024-03-03T12:23:37.999Z</time>
      </trkpt>
      <trkpt lat="49.228238" lon="7.110135">
        <ele>249.075988</ele>
        <time>2024-03-03T12:23:43.999Z</time>
      </trkpt>
      <trkpt lat="49.228295" lon="7.110243">
        <ele>249.075988</ele>
        <time>2024-03-03T12:24:15.999Z</time>
      </trkpt>
      <trkpt lat="49.228321" lon="7.110395">
        <ele>249.075988</ele>
        <time>2024-03-03T12:24:23.999Z</time>
      </trkpt>
      <trkpt lat="49.228317" lon="7.110537">
        <ele>249.075988</ele>
        <time>2024-03-03T12:24:42.998Z</time>
      </trkpt>
      <trkpt lat="49.228246" lon="7.110634">
        <ele>249.075988</ele>
        <time>2024-03-03T12:24:50.998Z</time>
      </trkpt>
      <trkpt lat="49.228189" lon="7.110747">
        <ele>249.075988</ele>
        <time>2024-03-03T12:25:01.998Z</time>
      </trkpt>
    </trkseg>
  </trk>
</gpx>